Observation data for Colorado City on 03/21/2019      Previous  Date  Next       Current Mesonet Observations  Soil Data  Daily Summary Page  Observations in Plain Language
KCO2 210500Z 13006KT 09/03 A3029 RMK A01 T00890025  RH  064%=      5-min Rain = 0
KCO2 210501Z 13006KT 09/03 A3029 RMK A01 T00890025  RH  064%=      5-min Rain = 0
KCO2 210502Z 13006KT 09/03 A3029 RMK A01 T00890025  RH  064%=      5-min Rain = 0
KCO2 210503Z 13005KT 09/03 A3029 RMK A01 T00890025  RH  064%=      5-min Rain = 0
KCO2 210504Z 13006KT 09/03 A3029 RMK A01 T00890025  RH  064%=      5-min Rain = 0
KCO2 210505Z 13006KT 09/03 A3029 RMK A01 T00890025  RH  064%=      5-min Rain = 0
KCO2 210506Z 13006KT 09/03 A3029 RMK A01 T00890025  RH  064%=      5-min Rain = 0
KCO2 210507Z 13006KT 09/03 A3029 RMK A01 T00890025  RH  064%=      5-min Rain = 0
KCO2 210508Z 13006KT 09/03 A3029 RMK A01 T00880025  RH  064%=      5-min Rain = 0
KCO2 210509Z 13006KT 09/03 A3029 RMK A01 T00880025  RH  064%=      5-min Rain = 0
KCO2 210510Z 13006KT 09/02 A3029 RMK A01 T00870024  RH  065%=      5-min Rain = 0
KCO2 210511Z 13006KT 09/03 A3029 RMK A01 T00870025  RH  065%=      5-min Rain = 0
KCO2 210512Z 13006KT 09/03 A3029 RMK A01 T00870025  RH  065%=      5-min Rain = 0
KCO2 210513Z 13006KT 09/03 A3029 RMK A01 T00860025  RH  065%=      5-min Rain = 0
KCO2 210514Z 13006KT 09/02 A3029 RMK A01 T00860024  RH  065%=      5-min Rain = 0
KCO2 210515Z 13006KT 09/02 A3029 RMK A01 T00850024  RH  066%=      5-min Rain = 0
KCO2 210516Z 13006KT 09/03 A3029 RMK A01 T00850025  RH  066%=      5-min Rain = 0
KCO2 210517Z 13006KT 09/02 A3029 RMK A01 T00850024  RH  066%=      5-min Rain = 0
KCO2 210518Z 13006KT 08/02 A3029 RMK A01 T00840024  RH  066%=      5-min Rain = 0
KCO2 210519Z 13006KT 08/02 A3029 RMK A01 T00840024  RH  066%=      5-min Rain = 0
KCO2 210520Z 13006KT 08/03 A3029 RMK A01 T00840025  RH  066%=      5-min Rain = 0
KCO2 210521Z 13006KT 08/02 A3029 RMK A01 T00840024  RH  066%=      5-min Rain = 0
KCO2 210522Z 13006KT 08/02 A3029 RMK A01 T00830024  RH  066%=      5-min Rain = 0
KCO2 210523Z 13006KT 08/02 A3029 RMK A01 T00840024  RH  066%=      5-min Rain = 0
KCO2 210524Z 13006KT 08/03 A3029 RMK A01 T00840025  RH  066%=      5-min Rain = 0
KCO2 210525Z 13006KT 08/02 A3029 RMK A01 T00830024  RH  066%=      5-min Rain = 0
KCO2 210526Z 13006KT 08/02 A3029 RMK A01 T00840024  RH  066%=      5-min Rain = 0
KCO2 210527Z 13006KT 08/02 A3028 RMK A01 T00830024  RH  066%=      5-min Rain = 0
KCO2 210528Z 13006KT 08/02 A3028 RMK A01 T00830024  RH  066%=      5-min Rain = 0
KCO2 210529Z 14006KT 08/02 A3028 RMK A01 T00830024  RH  066%=      5-min Rain = 0
KCO2 210530Z 14006KT 08/02 A3028 RMK A01 T00830024  RH  066%=      5-min Rain = 0
KCO2 210531Z 14006KT 08/02 A3028 RMK A01 T00830024  RH  066%=      5-min Rain = 0
KCO2 210532Z 15006KT 08/02 A3028 RMK A01 T00830024  RH  066%=      5-min Rain = 0
KCO2 210533Z 16006KT 08/02 A3028 RMK A01 T00820024  RH  067%=      5-min Rain = 0
KCO2 210534Z 20005KT 08/02 A3028 RMK A01 T00800023  RH  067%=      5-min Rain = 0
KCO2 210535Z 18004KT 08/02 A3028 RMK A01 T00770024  RH  069%=      5-min Rain = 0
KCO2 210536Z 16004KT 08/03 A3028 RMK A01 T00760025  RH  070%=      5-min Rain = 0
KCO2 210537Z 16005KT 08/03 A3028 RMK A01 T00760026  RH  070%=      5-min Rain = 0
KCO2 210538Z 16005KT 08/03 A3028 RMK A01 T00770026  RH  070%=      5-min Rain = 0
KCO2 210539Z 16005KT 08/03 A3028 RMK A01 T00770025  RH  070%=      5-min Rain = 0
KCO2 210540Z 16005KT 08/03 A3028 RMK A01 T00750025  RH  070%=      5-min Rain = 0
KCO2 210541Z 17005KT 07/02 A3028 RMK A01 T00730024  RH  071%=      5-min Rain = 0
KCO2 210542Z 17005KT 07/02 A3028 RMK A01 T00720024  RH  072%=      5-min Rain = 0
KCO2 210543Z 17005KT 07/02 A3028 RMK A01 T00700024  RH  072%=      5-min Rain = 0
KCO2 210544Z 16005KT 07/02 A3028 RMK A01 T00690024  RH  073%=      5-min Rain = 0
KCO2 210545Z 16005KT 07/02 A3028 RMK A01 T00680024  RH  073%=      5-min Rain = 0
KCO2 210546Z 16005KT 07/02 A3028 RMK A01 T00670023  RH  073%=      5-min Rain = 0
KCO2 210547Z 17004KT 07/02 A3028 RMK A01 T00660023  RH  074%=      5-min Rain = 0
KCO2 210548Z 18003KT 07/02 A3028 RMK A01 T00660023  RH  074%=      5-min Rain = 0
KCO2 210549Z 19003KT 07/02 A3028 RMK A01 T00650024  RH  075%=      5-min Rain = 0
KCO2 210550Z 18003KT 07/02 A3028 RMK A01 T00650024  RH  075%=      5-min Rain = 0
KCO2 210551Z 17003KT 06/02 A3028 RMK A01 T00640023  RH  075%=      5-min Rain = 0
KCO2 210552Z 16004KT 06/02 A3028 RMK A01 T00630023  RH  076%=      5-min Rain = 0
KCO2 210553Z 16004KT 06/02 A3028 RMK A01 T00630024  RH  076%=      5-min Rain = 0
KCO2 210554Z 16003KT 06/02 A3028 RMK A01 T00630024  RH  076%=      5-min Rain = 0
KCO2 210555Z 16003KT 06/02 A3028 RMK A01 T00630023  RH  076%=      5-min Rain = 0
KCO2 210556Z 17003KT 06/02 A3028 RMK A01 T00630022  RH  075%=      5-min Rain = 0
KCO2 210557Z 17003KT 06/02 A3028 RMK A01 T00630024  RH  076%=      5-min Rain = 0
KCO2 210558Z 18002KT 07/03 A3028 RMK A01 T00660027  RH  076%=      5-min Rain = 0
KCO2 210559Z 18002KT 07/03 A3028 RMK A01 T00680028  RH  076%=      5-min Rain = 0
KCO2 210600Z 17003KT 07/03 A3028 RMK A01 T00700028  RH  075%=      5-min Rain = 0
KCO2 210601Z 17004KT 07/03 A3028 RMK A01 T00710028  RH  074%=      5-min Rain = 0
KCO2 210602Z 16004KT 07/03 A3028 RMK A01 T00730028  RH  073%=      5-min Rain = 0
KCO2 210603Z 17005KT 08/03 A3028 RMK A01 T00750028  RH  072%=      5-min Rain = 0
KCO2 210604Z 17005KT 08/03 A3028 RMK A01 T00760027  RH  071%=      5-min Rain = 0
KCO2 210605Z 17006KT 08/03 A3028 RMK A01 T00770027  RH  070%=      5-min Rain = 0
KCO2 210606Z 18006KT 08/03 A3028 RMK A01 T00770026  RH  070%=      5-min Rain = 0
KCO2 210607Z 18006KT 08/03 A3028 RMK A01 T00770026  RH  070%=      5-min Rain = 0
KCO2 210608Z 18006KT 08/03 A3028 RMK A01 T00760026  RH  071%=      5-min Rain = 0
KCO2 210609Z 18006KT 07/03 A3028 RMK A01 T00740025  RH  071%=      5-min Rain = 0
KCO2 210610Z 17006KT 07/03 A3028 RMK A01 T00730026  RH  072%=      5-min Rain = 0
KCO2 210611Z 18006KT 07/03 A3028 RMK A01 T00730026  RH  072%=      5-min Rain = 0
KCO2 210612Z 17006KT 07/03 A3028 RMK A01 T00720025  RH  072%=      5-min Rain = 0
KCO2 210613Z 17007KT 07/03 A3028 RMK A01 T00720025  RH  072%=      5-min Rain = 0
KCO2 210614Z 17008KT 07/02 A3028 RMK A01 T00700024  RH  072%=      5-min Rain = 0
KCO2 210615Z 17007KT 07/02 A3028 RMK A01 T00680023  RH  073%=      5-min Rain = 0
KCO2 210616Z 17007KT 07/02 A3028 RMK A01 T00660023  RH  074%=      5-min Rain = 0
KCO2 210617Z 18008KT 07/02 A3028 RMK A01 T00650024  RH  075%=      5-min Rain = 0
KCO2 210618Z 18007KT 07/03 A3028 RMK A01 T00650025  RH  075%=      5-min Rain = 0
KCO2 210619Z 18007KT 07/03 A3028 RMK A01 T00650025  RH  075%=      5-min Rain = 0
KCO2 210620Z 18007KT 07/03 A3028 RMK A01 T00650025  RH  075%=      5-min Rain = 0
KCO2 210621Z 18007KT 07/03 A3028 RMK A01 T00650025  RH  076%=      5-min Rain = 0
KCO2 210622Z 18006KT 07/03 A3028 RMK A01 T00650025  RH  076%=      5-min Rain = 0
KCO2 210623Z 18006KT 07/03 A3028 RMK A01 T00650025  RH  076%=      5-min Rain = 0
KCO2 210624Z 18006KT 07/03 A3028 RMK A01 T00650026  RH  076%=      5-min Rain = 0
KCO2 210625Z 18006KT 07/03 A3028 RMK A01 T00650026  RH  076%=      5-min Rain = 0
KCO2 210626Z 18007KT 07/03 A3028 RMK A01 T00650026  RH  076%=      5-min Rain = 0
KCO2 210627Z 18007KT 07/03 A3028 RMK A01 T00650026  RH  076%=      5-min Rain = 0
KCO2 210628Z 18007KT 07/03 A3028 RMK A01 T00650027  RH  076%=      5-min Rain = 0
KCO2 210629Z 18007KT 07/03 A3028 RMK A01 T00650026  RH  076%=      5-min Rain = 0
KCO2 210630Z 18007KT 07/03 A3028 RMK A01 T00650027  RH  076%=      5-min Rain = 0
KCO2 210631Z 18006KT 07/03 A3028 RMK A01 T00650027  RH  076%=      5-min Rain = 0
KCO2 210632Z 18006KT 07/03 A3028 RMK A01 T00650027  RH  077%=      5-min Rain = 0
KCO2 210633Z 18006KT 07/03 A3028 RMK A01 T00650027  RH  077%=      5-min Rain = 0
KCO2 210634Z 18006KT 07/03 A3028 RMK A01 T00660028  RH  077%=      5-min Rain = 0
KCO2 210635Z 18006KT 07/03 A3028 RMK A01 T00670028  RH  076%=      5-min Rain = 0
KCO2 210636Z 18007KT 07/03 A3028 RMK A01 T00670028  RH  076%=      5-min Rain = 0
KCO2 210637Z 18007KT 07/03 A3027 RMK A01 T00680028  RH  076%=      5-min Rain = 0
KCO2 210638Z 18007KT 07/03 A3027 RMK A01 T00680029  RH  076%=      5-min Rain = 0
KCO2 210639Z 18007KT 07/03 A3027 RMK A01 T00680029  RH  076%=      5-min Rain = 0
KCO2 210640Z 18006KT 07/03 A3027 RMK A01 T00680029  RH  076%=      5-min Rain = 0
KCO2 210641Z 18006KT 07/03 A3027 RMK A01 T00680029  RH  076%=      5-min Rain = 0
KCO2 210642Z 18007KT 07/03 A3027 RMK A01 T00680029  RH  076%=      5-min Rain = 0
KCO2 210643Z 18007KT 07/03 A3027 RMK A01 T00670029  RH  077%=      5-min Rain = 0
KCO2 210644Z 18007KT 07/03 A3027 RMK A01 T00670029  RH  077%=      5-min Rain = 0
KCO2 210645Z 18007KT 07/03 A3027 RMK A01 T00670029  RH  077%=      5-min Rain = 0
KCO2 210646Z 18007KT 07/03 A3027 RMK A01 T00660030  RH  077%=      5-min Rain = 0
KCO2 210647Z 17007KT 07/03 A3027 RMK A01 T00660030  RH  078%=      5-min Rain = 0
KCO2 210648Z 18006KT 07/03 A3027 RMK A01 T00660031  RH  078%=      5-min Rain = 0
KCO2 210649Z 18006KT 07/03 A3027 RMK A01 T00670032  RH  078%=      5-min Rain = 0
KCO2 210650Z 18006KT 07/03 A3027 RMK A01 T00670032  RH  078%=      5-min Rain = 0
KCO2 210651Z 18005KT 07/03 A3027 RMK A01 T00680032  RH  078%=      5-min Rain = 0
KCO2 210652Z 18005KT 07/03 A3027 RMK A01 T00680032  RH  078%=      5-min Rain = 0
KCO2 210653Z 19005KT 07/03 A3027 RMK A01 T00670032  RH  078%=      5-min Rain = 0
KCO2 210654Z 19004KT 07/03 A3027 RMK A01 T00680033  RH  078%=      5-min Rain = 0
KCO2 210655Z 18004KT 07/03 A3027 RMK A01 T00670033  RH  078%=      5-min Rain = 0
KCO2 210656Z 18004KT 07/03 A3027 RMK A01 T00670032  RH  078%=      5-min Rain = 0
KCO2 210657Z 18004KT 07/03 A3027 RMK A01 T00670032  RH  079%=      5-min Rain = 0
KCO2 210658Z 18004KT 07/03 A3027 RMK A01 T00660032  RH  079%=      5-min Rain = 0
KCO2 210659Z 18004KT 07/03 A3028 RMK A01 T00660032  RH  079%=      5-min Rain = 0
KCO2 210700Z 18004KT 07/03 A3028 RMK A01 T00660032  RH  079%=      5-min Rain = 0
KCO2 210701Z 18004KT 07/03 A3028 RMK A01 T00660033  RH  080%=      5-min Rain = 0
KCO2 210702Z 18004KT 07/03 A3028 RMK A01 T00660034  RH  080%=      5-min Rain = 0
KCO2 210703Z 19004KT 07/04 A3028 RMK A01 T00670035  RH  080%=      5-min Rain = 0
KCO2 210704Z 18004KT 07/04 A3028 RMK A01 T00680035  RH  079%=      5-min Rain = 0
KCO2 210705Z 19004KT 07/04 A3028 RMK A01 T00690035  RH  079%=      5-min Rain = 0
KCO2 210706Z 19005KT 07/04 A3028 RMK A01 T00710036  RH  079%=      5-min Rain = 0
KCO2 210707Z 19005KT 07/04 A3028 RMK A01 T00720036  RH  078%=      5-min Rain = 0
KCO2 210708Z 19005KT 07/04 A3028 RMK A01 T00730036  RH  077%=      5-min Rain = 0
KCO2 210709Z 20004KT 07/04 A3027 RMK A01 T00740036  RH  077%=      5-min Rain = 0
KCO2 210710Z 20004KT 08/04 A3027 RMK A01 T00750036  RH  076%=      5-min Rain = 0
KCO2 210711Z 20004KT 08/04 A3027 RMK A01 T00760036  RH  076%=      5-min Rain = 0
KCO2 210712Z 19005KT 08/04 A3028 RMK A01 T00760037  RH  076%=      5-min Rain = 0
KCO2 210713Z 19005KT 08/04 A3028 RMK A01 T00760036  RH  076%=      5-min Rain = 0
KCO2 210714Z 19005KT 08/04 A3028 RMK A01 T00760036  RH  076%=      5-min Rain = 0
KCO2 210715Z 19005KT 08/04 A3028 RMK A01 T00750036  RH  076%=      5-min Rain = 0
KCO2 210716Z 19005KT 07/04 A3028 RMK A01 T00740035  RH  076%=      5-min Rain = 0
KCO2 210717Z 18005KT 07/04 A3028 RMK A01 T00740035  RH  076%=      5-min Rain = 0
KCO2 210718Z 18004KT 08/04 A3028 RMK A01 T00750036  RH  076%=      5-min Rain = 0
KCO2 210719Z 19004KT 08/04 A3028 RMK A01 T00750035  RH  076%=      5-min Rain = 0
KCO2 210720Z 19004KT 08/04 A3028 RMK A01 T00750035  RH  076%=      5-min Rain = 0
KCO2 210721Z 19004KT 08/04 A3028 RMK A01 T00750035  RH  076%=      5-min Rain = 0
KCO2 210722Z 19004KT 07/03 A3028 RMK A01 T00740034  RH  076%=      5-min Rain = 0
KCO2 210723Z 19004KT 07/03 A3028 RMK A01 T00720032  RH  076%=      5-min Rain = 0
KCO2 210724Z 19005KT 07/03 A3028 RMK A01 T00710031  RH  076%=      5-min Rain = 0
KCO2 210725Z 20005KT 07/03 A3028 RMK A01 T00690031  RH  077%=      5-min Rain = 0
KCO2 210726Z 20005KT 07/03 A3028 RMK A01 T00680032  RH  077%=      5-min Rain = 0
KCO2 210727Z 20005KT 07/03 A3028 RMK A01 T00680032  RH  078%=      5-min Rain = 0
KCO2 210728Z 20005KT 07/03 A3028 RMK A01 T00690032  RH  078%=      5-min Rain = 0
KCO2 210729Z 20005KT 07/03 A3028 RMK A01 T00690033  RH  078%=      5-min Rain = 0
KCO2 210730Z 20004KT 07/03 A3028 RMK A01 T00700033  RH  078%=      5-min Rain = 0
KCO2 210731Z 20004KT 07/03 A3028 RMK A01 T00700034  RH  078%=      5-min Rain = 0
KCO2 210732Z 20004KT 07/04 A3028 RMK A01 T00720035  RH  077%=      5-min Rain = 0
KCO2 210733Z 19004KT 07/03 A3028 RMK A01 T00720034  RH  077%=      5-min Rain = 0
KCO2 210734Z 19004KT 07/03 A3028 RMK A01 T00720033  RH  076%=      5-min Rain = 0
KCO2 210735Z 19004KT 07/03 A3028 RMK A01 T00700030  RH  076%=      5-min Rain = 0
KCO2 210736Z 19004KT 07/03 A3028 RMK A01 T00680031  RH  077%=      5-min Rain = 0
KCO2 210737Z 19004KT 07/03 A3028 RMK A01 T00680032  RH  078%=      5-min Rain = 0
KCO2 210738Z 19004KT 07/03 A3028 RMK A01 T00680032  RH  078%=      5-min Rain = 0
KCO2 210739Z 19004KT 07/03 A3028 RMK A01 T00690032  RH  077%=      5-min Rain = 0
KCO2 210740Z 19005KT 07/04 A3028 RMK A01 T00710035  RH  078%=      5-min Rain = 0
KCO2 210741Z 19004KT 08/04 A3028 RMK A01 T00750037  RH  077%=      5-min Rain = 0
KCO2 210742Z 19004KT 08/04 A3028 RMK A01 T00760035  RH  075%=      5-min Rain = 0
KCO2 210743Z 19004KT 08/04 A3028 RMK A01 T00770035  RH  075%=      5-min Rain = 0
KCO2 210744Z 19004KT 08/04 A3028 RMK A01 T00770035  RH  075%=      5-min Rain = 0
KCO2 210745Z 20004KT 08/04 A3028 RMK A01 T00780036  RH  075%=      5-min Rain = 0
KCO2 210746Z 21003KT 08/03 A3028 RMK A01 T00780033  RH  073%=      5-min Rain = 0
KCO2 210747Z 21003KT 08/03 A3028 RMK A01 T00760032  RH  074%=      5-min Rain = 0
KCO2 210748Z 21002KT 07/03 A3028 RMK A01 T00740032  RH  075%=      5-min Rain = 0
KCO2 210749Z 21002KT 07/03 A3028 RMK A01 T00720033  RH  076%=      5-min Rain = 0
KCO2 210750Z 21002KT 07/03 A3028 RMK A01 T00720034  RH  077%=      5-min Rain = 0
KCO2 210751Z 21002KT 07/04 A3028 RMK A01 T00720035  RH  077%=      5-min Rain = 0
KCO2 210752Z 20003KT 07/04 A3028 RMK A01 T00730035  RH  077%=      5-min Rain = 0
KCO2 210753Z 19003KT 08/04 A3028 RMK A01 T00750036  RH  077%=      5-min Rain = 0
KCO2 210754Z 20003KT 08/04 A3028 RMK A01 T00760036  RH  076%=      5-min Rain = 0
KCO2 210755Z 19003KT 08/04 A3028 RMK A01 T00760036  RH  076%=      5-min Rain = 0
KCO2 210756Z 20003KT 08/04 A3028 RMK A01 T00770036  RH  075%=      5-min Rain = 0
KCO2 210757Z 20003KT 08/04 A3028 RMK A01 T00760036  RH  075%=      5-min Rain = 0
KCO2 210758Z 20003KT 08/04 A3028 RMK A01 T00770037  RH  076%=      5-min Rain = 0
KCO2 210759Z 20003KT 08/04 A3027 RMK A01 T00790037  RH  075%=      5-min Rain = 0
KCO2 210800Z 20003KT 08/04 A3027 RMK A01 T00800037  RH  074%=      5-min Rain = 0
KCO2 210801Z 20003KT 08/04 A3027 RMK A01 T00790036  RH  074%=      5-min Rain = 0
KCO2 210802Z 19004KT 08/04 A3027 RMK A01 T00780036  RH  075%=      5-min Rain = 0
KCO2 210803Z 19004KT 08/04 A3028 RMK A01 T00770036  RH  075%=      5-min Rain = 0
KCO2 210804Z 18003KT 08/04 A3027 RMK A01 T00760035  RH  075%=      5-min Rain = 0
KCO2 210805Z 19003KT 08/04 A3027 RMK A01 T00750035  RH  076%=      5-min Rain = 0
KCO2 210806Z 18004KT 07/04 A3027 RMK A01 T00740036  RH  076%=      5-min Rain = 0
KCO2 210807Z 18004KT 07/04 A3027 RMK A01 T00740036  RH  076%=      5-min Rain = 0
KCO2 210808Z 18005KT 07/04 A3028 RMK A01 T00740035  RH  076%=      5-min Rain = 0
KCO2 210809Z 17004KT 07/03 A3028 RMK A01 T00720031  RH  075%=      5-min Rain = 0
KCO2 210810Z 17004KT 07/03 A3028 RMK A01 T00680027  RH  075%=      5-min Rain = 0
KCO2 210811Z 17005KT 06/03 A3028 RMK A01 T00640027  RH  077%=      5-min Rain = 0
KCO2 210812Z 17005KT 06/03 A3028 RMK A01 T00620029  RH  079%=      5-min Rain = 0
KCO2 210813Z 17005KT 06/03 A3028 RMK A01 T00600028  RH  080%=      5-min Rain = 0
KCO2 210814Z 17005KT 06/03 A3027 RMK A01 T00580028  RH  081%=      5-min Rain = 0
KCO2 210815Z 17005KT 06/03 A3027 RMK A01 T00580029  RH  082%=      5-min Rain = 0
KCO2 210816Z 17005KT 06/03 A3027 RMK A01 T00570030  RH  082%=      5-min Rain = 0
KCO2 210817Z 16005KT 06/03 A3027 RMK A01 T00580031  RH  083%=      5-min Rain = 0
KCO2 210818Z 16004KT 06/03 A3027 RMK A01 T00590031  RH  082%=      5-min Rain = 0
KCO2 210819Z 15004KT 06/03 A3027 RMK A01 T00580031  RH  083%=      5-min Rain = 0
KCO2 210820Z 15004KT 06/03 A3027 RMK A01 T00590032  RH  083%=      5-min Rain = 0
KCO2 210821Z 15004KT 06/03 A3027 RMK A01 T00600034  RH  083%=      5-min Rain = 0
KCO2 210822Z 15004KT 06/03 A3027 RMK A01 T00620034  RH  082%=      5-min Rain = 0
KCO2 210823Z 16004KT 06/03 A3027 RMK A01 T00630034  RH  082%=      5-min Rain = 0
KCO2 210824Z 16004KT 06/03 A3027 RMK A01 T00640034  RH  081%=      5-min Rain = 0
KCO2 210825Z 16004KT 07/03 A3027 RMK A01 T00650034  RH  081%=      5-min Rain = 0
KCO2 210826Z 16004KT 07/03 A3027 RMK A01 T00660034  RH  080%=      5-min Rain = 0
KCO2 210827Z 17004KT 07/03 A3027 RMK A01 T00660034  RH  080%=      5-min Rain = 0
KCO2 210828Z 17004KT 07/03 A3027 RMK A01 T00660033  RH  080%=      5-min Rain = 0
KCO2 210829Z 17004KT 07/03 A3027 RMK A01 T00670033  RH  079%=      5-min Rain = 0
KCO2 210830Z 17003KT 07/03 A3027 RMK A01 T00660033  RH  079%=      5-min Rain = 0
KCO2 210831Z 17003KT 07/03 A3027 RMK A01 T00660033  RH  080%=      5-min Rain = 0
KCO2 210832Z 17003KT 07/03 A3027 RMK A01 T00660033  RH  080%=      5-min Rain = 0
KCO2 210833Z 17003KT 07/03 A3027 RMK A01 T00660033  RH  079%=      5-min Rain = 0
KCO2 210834Z 17003KT 07/03 A3027 RMK A01 T00660033  RH  080%=      5-min Rain = 0
KCO2 210835Z 17004KT 07/03 A3027 RMK A01 T00660033  RH  079%=      5-min Rain = 0
KCO2 210836Z 17004KT 07/03 A3027 RMK A01 T00660032  RH  079%=      5-min Rain = 0
KCO2 210837Z 16004KT 07/03 A3027 RMK A01 T00650031  RH  079%=      5-min Rain = 0
KCO2 210838Z 16004KT 06/03 A3027 RMK A01 T00640030  RH  079%=      5-min Rain = 0
KCO2 210839Z 16005KT 06/03 A3027 RMK A01 T00620028  RH  079%=      5-min Rain = 0
KCO2 210840Z 16005KT 06/03 A3027 RMK A01 T00600028  RH  080%=      5-min Rain = 0
KCO2 210841Z 15004KT 06/03 A3027 RMK A01 T00590029  RH  081%=      5-min Rain = 0
KCO2 210842Z 16004KT 06/03 A3027 RMK A01 T00590030  RH  081%=      5-min Rain = 0
KCO2 210843Z 16004KT 06/03 A3027 RMK A01 T00590030  RH  082%=      5-min Rain = 0
KCO2 210844Z 16003KT 06/03 A3027 RMK A01 T00590030  RH  082%=      5-min Rain = 0
KCO2 210845Z 16003KT 06/03 A3027 RMK A01 T00600031  RH  082%=      5-min Rain = 0
KCO2 210846Z 17003KT 06/03 A3026 RMK A01 T00600030  RH  081%=      5-min Rain = 0
KCO2 210847Z 16003KT 06/03 A3026 RMK A01 T00600030  RH  081%=      5-min Rain = 0
KCO2 210848Z 16003KT 06/03 A3026 RMK A01 T00610031  RH  081%=      5-min Rain = 0
KCO2 210849Z 16003KT 06/03 A3026 RMK A01 T00610030  RH  080%=      5-min Rain = 0
KCO2 210850Z 16003KT 06/03 A3026 RMK A01 T00620029  RH  080%=      5-min Rain = 0
KCO2 210851Z 16003KT 06/03 A3026 RMK A01 T00610029  RH  080%=      5-min Rain = 0
KCO2 210852Z 15003KT 06/03 A3026 RMK A01 T00610029  RH  079%=      5-min Rain = 0
KCO2 210853Z 16003KT 06/03 A3026 RMK A01 T00610028  RH  080%=      5-min Rain = 0
KCO2 210854Z 17003KT 06/03 A3026 RMK A01 T00600029  RH  080%=      5-min Rain = 0
KCO2 210855Z 17003KT 06/03 A3026 RMK A01 T00600029  RH  081%=      5-min Rain = 0
KCO2 210856Z 17004KT 06/03 A3026 RMK A01 T00600030  RH  081%=      5-min Rain = 0
KCO2 210857Z 18004KT 06/03 A3026 RMK A01 T00600030  RH  081%=      5-min Rain = 0
KCO2 210858Z 18004KT 06/03 A3026 RMK A01 T00600030  RH  081%=      5-min Rain = 0
KCO2 210859Z 19003KT 06/03 A3026 RMK A01 T00600030  RH  081%=      5-min Rain = 0
KCO2 210900Z 19003KT 06/03 A3026 RMK A01 T00600030  RH  081%=      5-min Rain = 0
KCO2 210901Z 19003KT 06/03 A3026 RMK A01 T00600030  RH  081%=      5-min Rain = 0
KCO2 210902Z 19003KT 06/03 A3026 RMK A01 T00610031  RH  081%=      5-min Rain = 0
KCO2 210903Z 19003KT 06/03 A3026 RMK A01 T00610031  RH  081%=      5-min Rain = 0
KCO2 210904Z 19003KT 06/03 A3026 RMK A01 T00620031  RH  081%=      5-min Rain = 0
KCO2 210905Z 18002KT 06/03 A3026 RMK A01 T00620031  RH  081%=      5-min Rain = 0
KCO2 210906Z 17002KT 06/03 A3026 RMK A01 T00620031  RH  081%=      5-min Rain = 0
KCO2 210907Z 16002KT 06/03 A3026 RMK A01 T00620031  RH  080%=      5-min Rain = 0
KCO2 210908Z 16002KT 06/03 A3026 RMK A01 T00620031  RH  080%=      5-min Rain = 0
KCO2 210909Z 16002KT 06/03 A3026 RMK A01 T00630031  RH  080%=      5-min Rain = 0
KCO2 210910Z 16002KT 06/03 A3026 RMK A01 T00620028  RH  079%=      5-min Rain = 0
KCO2 210911Z 16002KT 06/03 A3026 RMK A01 T00600026  RH  079%=      5-min Rain = 0
KCO2 210912Z 17002KT 06/03 A3026 RMK A01 T00590026  RH  079%=      5-min Rain = 0
KCO2 210913Z 18002KT 06/03 A3026 RMK A01 T00580026  RH  080%=      5-min Rain = 0
KCO2 210914Z 19002KT 06/03 A3026 RMK A01 T00570026  RH  080%=      5-min Rain = 0
KCO2 210915Z 19002KT 06/03 A3026 RMK A01 T00570027  RH  081%=      5-min Rain = 0
KCO2 210916Z 21001KT 06/03 A3026 RMK A01 T00570027  RH  081%=      5-min Rain = 0
KCO2 210917Z 21001KT 06/03 A3026 RMK A01 T00570027  RH  081%=      5-min Rain = 0
KCO2 210918Z 21001KT 06/03 A3026 RMK A01 T00570026  RH  081%=      5-min Rain = 0
KCO2 210919Z 21001KT 06/02 A3026 RMK A01 T00550021  RH  079%=      5-min Rain = 0
KCO2 210920Z 21000KT 05/02 A3026 RMK A01 T00520018  RH  079%=      5-min Rain = 0
KCO2 210921Z 21000KT 05/02 A3026 RMK A01 T00500018  RH  080%=      5-min Rain = 0
KCO2 210922Z 21001KT 05/02 A3026 RMK A01 T00470016  RH  080%=      5-min Rain = 0
KCO2 210923Z 21000KT 05/02 A3026 RMK A01 T00460019  RH  083%=      5-min Rain = 0
KCO2 210924Z 21000KT 05/02 A3026 RMK A01 T00470024  RH  085%=      5-min Rain = 0
KCO2 210925Z 21001KT 05/03 A3026 RMK A01 T00480027  RH  086%=      5-min Rain = 0
KCO2 210926Z 21000KT 05/03 A3026 RMK A01 T00490029  RH  087%=      5-min Rain = 0
KCO2 210927Z 21000KT 05/03 A3026 RMK A01 T00500030  RH  087%=      5-min Rain = 0
KCO2 210928Z 21000KT 05/03 A3026 RMK A01 T00510030  RH  087%=      5-min Rain = 0
KCO2 210929Z 00000KT 05/03 A3026 RMK A01 T00520032  RH  087%=      5-min Rain = 0
KCO2 210930Z 29001KT 06/04 A3026 RMK A01 T00550035  RH  087%=      5-min Rain = 0
KCO2 210931Z 31002KT 06/04 A3026 RMK A01 T00570035  RH  086%=      5-min Rain = 0
KCO2 210932Z 31002KT 06/03 A3026 RMK A01 T00570034  RH  085%=      5-min Rain = 0
KCO2 210933Z 31002KT 06/03 A3026 RMK A01 T00580033  RH  084%=      5-min Rain = 0
KCO2 210934Z 31002KT 06/03 A3026 RMK A01 T00570031  RH  083%=      5-min Rain = 0
KCO2 210935Z 31002KT 06/03 A3026 RMK A01 T00550028  RH  083%=      5-min Rain = 0
KCO2 210936Z 31001KT 05/03 A3026 RMK A01 T00530026  RH  083%=      5-min Rain = 0
KCO2 210937Z 31001KT 05/03 A3026 RMK A01 T00520026  RH  083%=      5-min Rain = 0
KCO2 210938Z 31001KT 05/03 A3026 RMK A01 T00500026  RH  084%=      5-min Rain = 0
KCO2 210939Z 31000KT 05/03 A3026 RMK A01 T00500027  RH  085%=      5-min Rain = 0
KCO2 210940Z 26000KT 05/03 A3026 RMK A01 T00500027  RH  085%=      5-min Rain = 0
KCO2 210941Z 26001KT 05/03 A3026 RMK A01 T00500027  RH  085%=      5-min Rain = 0
KCO2 210942Z 26001KT 05/03 A3026 RMK A01 T00500027  RH  085%=      5-min Rain = 0
KCO2 210943Z 26002KT 05/03 A3025 RMK A01 T00500027  RH  085%=      5-min Rain = 0
KCO2 210944Z 25002KT 05/03 A3025 RMK A01 T00500028  RH  086%=      5-min Rain = 0
KCO2 210945Z 25002KT 05/03 A3025 RMK A01 T00500027  RH  085%=      5-min Rain = 0
KCO2 210946Z 25002KT 05/03 A3025 RMK A01 T00500026  RH  084%=      5-min Rain = 0
KCO2 210947Z 26002KT 05/03 A3025 RMK A01 T00500026  RH  085%=      5-min Rain = 0
KCO2 210948Z 26002KT 05/03 A3025 RMK A01 T00500027  RH  085%=      5-min Rain = 0
KCO2 210949Z 25002KT 05/03 A3025 RMK A01 T00490028  RH  086%=      5-min Rain = 0
KCO2 210950Z 25002KT 05/03 A3025 RMK A01 T00500028  RH  086%=      5-min Rain = 0
KCO2 210951Z 25001KT 05/03 A3025 RMK A01 T00500027  RH  085%=      5-min Rain = 0
KCO2 210952Z 25001KT 05/03 A3026 RMK A01 T00490026  RH  085%=      5-min Rain = 0
KCO2 210953Z 25001KT 05/02 A3026 RMK A01 T00480024  RH  084%=      5-min Rain = 0
KCO2 210954Z 25001KT 05/02 A3026 RMK A01 T00470022  RH  084%=      5-min Rain = 0
KCO2 210955Z 25001KT 05/02 A3026 RMK A01 T00460022  RH  084%=      5-min Rain = 0
KCO2 210956Z 24001KT 05/02 A3026 RMK A01 T00460020  RH  084%=      5-min Rain = 0
KCO2 210957Z 24001KT 05/02 A3026 RMK A01 T00450019  RH  084%=      5-min Rain = 0
KCO2 210958Z 24001KT 05/02 A3025 RMK A01 T00450022  RH  085%=      5-min Rain = 0
KCO2 210959Z 23001KT 05/02 A3025 RMK A01 T00450024  RH  086%=      5-min Rain = 0
KCO2 211000Z 23001KT 05/03 A3025 RMK A01 T00460026  RH  087%=      5-min Rain = 0
KCO2 211001Z 24001KT 05/03 A3025 RMK A01 T00460025  RH  086%=      5-min Rain = 0
KCO2 211002Z 24001KT 05/02 A3025 RMK A01 T00470023  RH  085%=      5-min Rain = 0
KCO2 211003Z 24001KT 05/02 A3025 RMK A01 T00460021  RH  084%=      5-min Rain = 0
KCO2 211004Z 23001KT 05/02 A3025 RMK A01 T00450020  RH  084%=      5-min Rain = 0
KCO2 211005Z 22001KT 04/02 A3025 RMK A01 T00430017  RH  083%=      5-min Rain = 0
KCO2 211006Z 21000KT 04/02 A3025 RMK A01 T00410016  RH  084%=      5-min Rain = 0
KCO2 211007Z 21001KT 04/02 A3025 RMK A01 T00410018  RH  085%=      5-min Rain = 0
KCO2 211008Z 21001KT 04/02 A3025 RMK A01 T00400019  RH  086%=      5-min Rain = 0
KCO2 211009Z 21001KT 04/02 A3025 RMK A01 T00400020  RH  087%=      5-min Rain = 0
KCO2 211010Z 21002KT 04/02 A3025 RMK A01 T00400022  RH  088%=      5-min Rain = 0
KCO2 211011Z 21002KT 04/02 A3025 RMK A01 T00410023  RH  088%=      5-min Rain = 0
KCO2 211012Z 20002KT 04/03 A3025 RMK A01 T00420025  RH  088%=      5-min Rain = 0
KCO2 211013Z 20002KT 04/03 A3025 RMK A01 T00440025  RH  088%=      5-min Rain = 0
KCO2 211014Z 20001KT 04/02 A3025 RMK A01 T00440024  RH  087%=      5-min Rain = 0
KCO2 211015Z 20001KT 05/03 A3025 RMK A01 T00460025  RH  087%=      5-min Rain = 0
KCO2 211016Z 20001KT 05/03 A3025 RMK A01 T00470025  RH  086%=      5-min Rain = 0
KCO2 211017Z 20000KT 05/02 A3025 RMK A01 T00480024  RH  085%=      5-min Rain = 0
KCO2 211018Z 21001KT 05/02 A3025 RMK A01 T00480024  RH  085%=      5-min Rain = 0
KCO2 211019Z 21000KT 05/02 A3025 RMK A01 T00480024  RH  085%=      5-min Rain = 0
KCO2 211020Z 21001KT 05/02 A3025 RMK A01 T00470024  RH  085%=      5-min Rain = 0
KCO2 211021Z 21001KT 05/02 A3025 RMK A01 T00450022  RH  085%=      5-min Rain = 0
KCO2 211022Z 21000KT 04/02 A3025 RMK A01 T00440022  RH  085%=      5-min Rain = 0
KCO2 211023Z 21000KT 04/02 A3025 RMK A01 T00430022  RH  086%=      5-min Rain = 0
KCO2 211024Z 00000KT 04/02 A3025 RMK A01 T00430022  RH  087%=      5-min Rain = 0
KCO2 211025Z 00000KT 04/02 A3025 RMK A01 T00420023  RH  087%=      5-min Rain = 0
KCO2 211026Z 00000KT 04/02 A3025 RMK A01 T00420023  RH  087%=      5-min Rain = 0
KCO2 211027Z 15000KT 04/02 A3025 RMK A01 T00420023  RH  087%=      5-min Rain = 0
KCO2 211028Z 15000KT 04/02 A3025 RMK A01 T00420023  RH  087%=      5-min Rain = 0
KCO2 211029Z 10001KT 04/02 A3025 RMK A01 T00430024  RH  087%=      5-min Rain = 0
KCO2 211030Z 09001KT 04/02 A3025 RMK A01 T00430023  RH  087%=      5-min Rain = 0
KCO2 211031Z 09001KT 04/02 A3025 RMK A01 T00410022  RH  087%=      5-min Rain = 0
KCO2 211032Z 09001KT 04/02 A3025 RMK A01 T00410021  RH  087%=      5-min Rain = 0
KCO2 211033Z 09000KT 04/02 A3025 RMK A01 T00400022  RH  088%=      5-min Rain = 0
KCO2 211034Z 09000KT 04/02 A3025 RMK A01 T00400022  RH  088%=      5-min Rain = 0
KCO2 211035Z 09001KT 04/02 A3026 RMK A01 T00400022  RH  088%=      5-min Rain = 0
KCO2 211036Z 08001KT 04/02 A3026 RMK A01 T00400022  RH  088%=      5-min Rain = 0
KCO2 211037Z 08001KT 04/02 A3026 RMK A01 T00400023  RH  089%=      5-min Rain = 0
KCO2 211038Z 08002KT 04/02 A3026 RMK A01 T00400023  RH  089%=      5-min Rain = 0
KCO2 211039Z 08002KT 04/02 A3026 RMK A01 T00400023  RH  089%=      5-min Rain = 0
KCO2 211040Z 08002KT 04/02 A3026 RMK A01 T00400023  RH  089%=      5-min Rain = 0
KCO2 211041Z 07002KT 04/02 A3026 RMK A01 T00400022  RH  088%=      5-min Rain = 0
KCO2 211042Z 07002KT 04/02 A3026 RMK A01 T00390022  RH  088%=      5-min Rain = 0
KCO2 211043Z 06002KT 04/02 A3026 RMK A01 T00400022  RH  088%=      5-min Rain = 0
KCO2 211044Z 06002KT 04/02 A3026 RMK A01 T00390022  RH  088%=      5-min Rain = 0
KCO2 211045Z 06002KT 04/02 A3026 RMK A01 T00380021  RH  088%=      5-min Rain = 0
KCO2 211046Z 06002KT 04/02 A3026 RMK A01 T00380020  RH  088%=      5-min Rain = 0
KCO2 211047Z 06001KT 04/02 A3026 RMK A01 T00370020  RH  088%=      5-min Rain = 0
KCO2 211048Z 06001KT 04/02 A3026 RMK A01 T00370020  RH  089%=      5-min Rain = 0
KCO2 211049Z 06001KT 04/02 A3026 RMK A01 T00360019  RH  089%=      5-min Rain = 0
KCO2 211050Z 06001KT 04/02 A3026 RMK A01 T00360019  RH  089%=      5-min Rain = 0
KCO2 211051Z 06002KT 04/02 A3026 RMK A01 T00360020  RH  089%=      5-min Rain = 0
KCO2 211052Z 06002KT 04/02 A3026 RMK A01 T00360020  RH  089%=      5-min Rain = 0
KCO2 211053Z 06002KT 04/02 A3026 RMK A01 T00370021  RH  089%=      5-min Rain = 0
KCO2 211054Z 07002KT 04/02 A3026 RMK A01 T00370021  RH  089%=      5-min Rain = 0
KCO2 211055Z 07002KT 04/02 A3026 RMK A01 T00370021  RH  089%=      5-min Rain = 0
KCO2 211056Z 07002KT 04/02 A3026 RMK A01 T00380021  RH  089%=      5-min Rain = 0
KCO2 211057Z 07002KT 04/02 A3026 RMK A01 T00380021  RH  089%=      5-min Rain = 0
KCO2 211058Z 07002KT 04/02 A3026 RMK A01 T00380021  RH  089%=      5-min Rain = 0
KCO2 211059Z 07002KT 04/02 A3026 RMK A01 T00380021  RH  089%=      5-min Rain = 0
KCO2 211100Z 07002KT 04/02 A3026 RMK A01 T00390022  RH  089%=      5-min Rain = 0
KCO2 211101Z 07002KT 04/02 A3026 RMK A01 T00390022  RH  089%=      5-min Rain = 0
KCO2 211102Z 08002KT 04/02 A3026 RMK A01 T00390022  RH  089%=      5-min Rain = 0
KCO2 211103Z 08002KT 04/02 A3026 RMK A01 T00390022  RH  089%=      5-min Rain = 0
KCO2 211104Z 08003KT 04/02 A3026 RMK A01 T00390022  RH  089%=      5-min Rain = 0
KCO2 211105Z 08003KT 04/02 A3026 RMK A01 T00390022  RH  088%=      5-min Rain = 0
KCO2 211106Z 08003KT 04/02 A3026 RMK A01 T00390022  RH  089%=      5-min Rain = 0
KCO2 211107Z 08003KT 04/02 A3026 RMK A01 T00390022  RH  089%=      5-min Rain = 0
KCO2 211108Z 08003KT 04/02 A3026 RMK A01 T00390022  RH  089%=      5-min Rain = 0
KCO2 211109Z 08003KT 04/02 A3026 RMK A01 T00390022  RH  089%=      5-min Rain = 0
KCO2 211110Z 08003KT 04/02 A3026 RMK A01 T00390022  RH  089%=      5-min Rain = 0
KCO2 211111Z 08003KT 04/02 A3027 RMK A01 T00390022  RH  089%=      5-min Rain = 0
KCO2 211112Z 09003KT 04/02 A3027 RMK A01 T00390022  RH  089%=      5-min Rain = 0
KCO2 211113Z 09003KT 04/02 A3026 RMK A01 T00390023  RH  089%=      5-min Rain = 0
KCO2 211114Z 09003KT 04/02 A3026 RMK A01 T00400022  RH  089%=      5-min Rain = 0
KCO2 211115Z 09003KT 04/02 A3026 RMK A01 T00400022  RH  088%=      5-min Rain = 0
KCO2 211116Z 09004KT 04/02 A3027 RMK A01 T00390022  RH  088%=      5-min Rain = 0
KCO2 211117Z 09003KT 04/02 A3027 RMK A01 T00400022  RH  088%=      5-min Rain = 0
KCO2 211118Z 09003KT 04/02 A3027 RMK A01 T00400022  RH  088%=      5-min Rain = 0
KCO2 211119Z 10003KT 04/02 A3027 RMK A01 T00400022  RH  089%=      5-min Rain = 0
KCO2 211120Z 11003KT 04/02 A3027 RMK A01 T00400022  RH  088%=      5-min Rain = 0
KCO2 211121Z 11003KT 04/02 A3027 RMK A01 T00400022  RH  088%=      5-min Rain = 0
KCO2 211122Z 11003KT 04/02 A3027 RMK A01 T00400022  RH  088%=      5-min Rain = 0
KCO2 211123Z 11003KT 04/02 A3027 RMK A01 T00390022  RH  088%=      5-min Rain = 0
KCO2 211124Z 11004KT 04/02 A3027 RMK A01 T00390022  RH  088%=      5-min Rain = 0
KCO2 211125Z 11004KT 04/02 A3027 RMK A01 T00400022  RH  088%=      5-min Rain = 0
KCO2 211126Z 11004KT 04/02 A3027 RMK A01 T00400022  RH  088%=      5-min Rain = 0
KCO2 211127Z 11004KT 04/02 A3027 RMK A01 T00390022  RH  088%=      5-min Rain = 0
KCO2 211128Z 11004KT 04/02 A3027 RMK A01 T00400022  RH  088%=      5-min Rain = 0
KCO2 211129Z 12004KT 04/02 A3027 RMK A01 T00390021  RH  088%=      5-min Rain = 0
KCO2 211130Z 12004KT 04/02 A3027 RMK A01 T00380020  RH  088%=      5-min Rain = 0
KCO2 211131Z 12004KT 04/02 A3027 RMK A01 T00380020  RH  088%=      5-min Rain = 0
KCO2 211132Z 12003KT 04/02 A3027 RMK A01 T00380020  RH  089%=      5-min Rain = 0
KCO2 211133Z 12003KT 04/02 A3027 RMK A01 T00380021  RH  089%=      5-min Rain = 0
KCO2 211134Z 12003KT 04/02 A3027 RMK A01 T00380022  RH  089%=      5-min Rain = 0
KCO2 211135Z 13003KT 04/02 A3027 RMK A01 T00390022  RH  089%=      5-min Rain = 0
KCO2 211136Z 13003KT 04/02 A3027 RMK A01 T00390022  RH  089%=      5-min Rain = 0
KCO2 211137Z 13003KT 04/02 A3027 RMK A01 T00400023  RH  089%=      5-min Rain = 0
KCO2 211138Z 13003KT 04/02 A3027 RMK A01 T00400023  RH  088%=      5-min Rain = 0
KCO2 211139Z 13004KT 04/02 A3027 RMK A01 T00400022  RH  088%=      5-min Rain = 0
KCO2 211140Z 13004KT 04/02 A3027 RMK A01 T00400021  RH  087%=      5-min Rain = 0
KCO2 211141Z 13004KT 04/02 A3027 RMK A01 T00380019  RH  087%=      5-min Rain = 0
KCO2 211142Z 13004KT 04/02 A3027 RMK A01 T00370019  RH  088%=      5-min Rain = 0
KCO2 211143Z 13004KT 04/02 A3028 RMK A01 T00360018  RH  088%=      5-min Rain = 0
KCO2 211144Z 14005KT 04/02 A3028 RMK A01 T00350018  RH  089%=      5-min Rain = 0
KCO2 211145Z 14005KT 03/02 A3028 RMK A01 T00330017  RH  089%=      5-min Rain = 0
KCO2 211146Z 14004KT 03/02 A3028 RMK A01 T00320016  RH  089%=      5-min Rain = 0
KCO2 211147Z 14004KT 03/02 A3028 RMK A01 T00310016  RH  090%=      5-min Rain = 0
KCO2 211148Z 13004KT 03/02 A3028 RMK A01 T00310016  RH  090%=      5-min Rain = 0
KCO2 211149Z 13004KT 03/02 A3028 RMK A01 T00300017  RH  091%=      5-min Rain = 0
KCO2 211150Z 13004KT 03/02 A3028 RMK A01 T00300017  RH  091%=      5-min Rain = 0
KCO2 211151Z 13004KT 03/02 A3028 RMK A01 T00300016  RH  091%=      5-min Rain = 0
KCO2 211152Z 12003KT 03/02 A3028 RMK A01 T00290016  RH  091%=      5-min Rain = 0
KCO2 211153Z 12003KT 03/02 A3028 RMK A01 T00280015  RH  091%=      5-min Rain = 0
KCO2 211154Z 12003KT 03/02 A3028 RMK A01 T00280015  RH  091%=      5-min Rain = 0
KCO2 211155Z 12004KT 03/02 A3028 RMK A01 T00280016  RH  092%=      5-min Rain = 0
KCO2 211156Z 12003KT 03/02 A3028 RMK A01 T00270015  RH  092%=      5-min Rain = 0
KCO2 211157Z 12003KT 03/02 A3028 RMK A01 T00270015  RH  092%=      5-min Rain = 0
KCO2 211158Z 12003KT 03/01 A3028 RMK A01 T00260014  RH  092%=      5-min Rain = 0
KCO2 211159Z 12003KT 03/01 A3028 RMK A01 T00250014  RH  092%=      5-min Rain = 0
KCO2 211200Z 12002KT 03/01 A3028 RMK A01 T00250014  RH  093%=      5-min Rain = 0
KCO2 211201Z 12002KT 03/02 A3028 RMK A01 T00260015  RH  093%=      5-min Rain = 0
KCO2 211202Z 12002KT 03/02 A3028 RMK A01 T00260016  RH  093%=      5-min Rain = 0
KCO2 211203Z 11003KT 03/02 A3028 RMK A01 T00270016  RH  093%=      5-min Rain = 0
KCO2 211204Z 11003KT 03/02 A3028 RMK A01 T00270016  RH  092%=      5-min Rain = 0
KCO2 211205Z 10003KT 03/02 A3028 RMK A01 T00280016  RH  092%=      5-min Rain = 0
KCO2 211206Z 11003KT 03/02 A3028 RMK A01 T00280016  RH  092%=      5-min Rain = 0
KCO2 211207Z 11003KT 03/02 A3028 RMK A01 T00270015  RH  092%=      5-min Rain = 0
KCO2 211208Z 11002KT 03/02 A3028 RMK A01 T00270015  RH  091%=      5-min Rain = 0
KCO2 211209Z 11002KT 03/01 A3028 RMK A01 T00270014  RH  091%=      5-min Rain = 0
KCO2 211210Z 11002KT 03/01 A3028 RMK A01 T00270014  RH  091%=      5-min Rain = 0
KCO2 211211Z 11003KT 03/01 A3028 RMK A01 T00270014  RH  092%=      5-min Rain = 0
KCO2 211212Z 12003KT 03/01 A3028 RMK A01 T00270014  RH  092%=      5-min Rain = 0
KCO2 211213Z 11003KT 03/01 A3028 RMK A01 T00270014  RH  091%=      5-min Rain = 0
KCO2 211214Z 11002KT 03/01 A3028 RMK A01 T00270014  RH  091%=      5-min Rain = 0
KCO2 211215Z 12002KT 03/01 A3028 RMK A01 T00260013  RH  091%=      5-min Rain = 0
KCO2 211216Z 12002KT 03/01 A3028 RMK A01 T00260013  RH  091%=      5-min Rain = 0
KCO2 211217Z 10002KT 03/01 A3028 RMK A01 T00250013  RH  091%=      5-min Rain = 0
KCO2 211218Z 10002KT 03/01 A3028 RMK A01 T00250012  RH  091%=      5-min Rain = 0
KCO2 211219Z 10002KT 02/01 A3028 RMK A01 T00240011  RH  091%=      5-min Rain = 0
KCO2 211220Z 11002KT 02/01 A3028 RMK A01 T00240011  RH  091%=      5-min Rain = 0
KCO2 211221Z 11002KT 02/01 A3028 RMK A01 T00240011  RH  091%=      5-min Rain = 0
KCO2 211222Z 12001KT 02/01 A3028 RMK A01 T00230010  RH  091%=      5-min Rain = 0
KCO2 211223Z 13001KT 02/01 A3028 RMK A01 T00230010  RH  091%=      5-min Rain = 0
KCO2 211224Z 13001KT 02/01 A3028 RMK A01 T00230011  RH  092%=      5-min Rain = 0
KCO2 211225Z 12002KT 02/01 A3028 RMK A01 T00230011  RH  092%=      5-min Rain = 0
KCO2 211226Z 13001KT 02/01 A3028 RMK A01 T00230011  RH  092%=      5-min Rain = 0
KCO2 211227Z 13001KT 02/01 A3028 RMK A01 T00230011  RH  092%=      5-min Rain = 0
KCO2 211228Z 13001KT 02/01 A3028 RMK A01 T00230011  RH  092%=      5-min Rain = 0
KCO2 211229Z 13001KT 02/01 A3028 RMK A01 T00240011  RH  092%=      5-min Rain = 0
KCO2 211230Z 13001KT 02/01 A3028 RMK A01 T00240012  RH  092%=      5-min Rain = 0
KCO2 211231Z 13001KT 02/01 A3028 RMK A01 T00240012  RH  092%=      5-min Rain = 0
KCO2 211232Z 13001KT 02/01 A3028 RMK A01 T00240011  RH  091%=      5-min Rain = 0
KCO2 211233Z 12001KT 02/01 A3028 RMK A01 T00240011  RH  091%=      5-min Rain = 0
KCO2 211234Z 12001KT 02/01 A3028 RMK A01 T00240011  RH  091%=      5-min Rain = 0
KCO2 211235Z 12001KT 03/01 A3028 RMK A01 T00250012  RH  091%=      5-min Rain = 0
KCO2 211236Z 12001KT 03/01 A3028 RMK A01 T00250013  RH  091%=      5-min Rain = 0
KCO2 211237Z 12001KT 03/01 A3028 RMK A01 T00260013  RH  091%=      5-min Rain = 0
KCO2 211238Z 12001KT 03/01 A3028 RMK A01 T00270014  RH  091%=      5-min Rain = 0
KCO2 211239Z 12001KT 03/01 A3028 RMK A01 T00270014  RH  091%=      5-min Rain = 0
KCO2 211240Z 12002KT 03/02 A3028 RMK A01 T00280015  RH  091%=      5-min Rain = 0
KCO2 211241Z 12001KT 03/02 A3028 RMK A01 T00280015  RH  091%=      5-min Rain = 0
KCO2 211242Z 12001KT 03/02 A3028 RMK A01 T00290015  RH  091%=      5-min Rain = 0
KCO2 211243Z 12001KT 03/02 A3028 RMK A01 T00290016  RH  091%=      5-min Rain = 0
KCO2 211244Z 12001KT 03/02 A3028 RMK A01 T00300016  RH  091%=      5-min Rain = 0
KCO2 211245Z 12001KT 03/02 A3028 RMK A01 T00300016  RH  091%=      5-min Rain = 0
KCO2 211246Z 12001KT 03/02 A3028 RMK A01 T00290016  RH  091%=      5-min Rain = 0
KCO2 211247Z 10001KT 03/02 A3028 RMK A01 T00300016  RH  091%=      5-min Rain = 0
KCO2 211248Z 10001KT 03/02 A3028 RMK A01 T00300016  RH  091%=      5-min Rain = 0
KCO2 211249Z 10001KT 03/02 A3028 RMK A01 T00290016  RH  091%=      5-min Rain = 0
KCO2 211250Z 10001KT 03/02 A3028 RMK A01 T00290016  RH  091%=      5-min Rain = 0
KCO2 211251Z 10001KT 03/02 A3028 RMK A01 T00300016  RH  091%=      5-min Rain = 0
KCO2 211252Z 10001KT 03/02 A3028 RMK A01 T00300017  RH  091%=      5-min Rain = 0
KCO2 211253Z 09001KT 03/02 A3028 RMK A01 T00300016  RH  091%=      5-min Rain = 0
KCO2 211254Z 09001KT 03/02 A3028 RMK A01 T00300017  RH  091%=      5-min Rain = 0
KCO2 211255Z 09001KT 03/02 A3028 RMK A01 T00310017  RH  091%=      5-min Rain = 0
KCO2 211256Z 09001KT 03/02 A3028 RMK A01 T00310018  RH  091%=      5-min Rain = 0
KCO2 211257Z 09001KT 03/02 A3028 RMK A01 T00320019  RH  091%=      5-min Rain = 0
KCO2 211258Z 09001KT 03/02 A3028 RMK A01 T00330019  RH  091%=      5-min Rain = 0
KCO2 211259Z 08001KT 03/02 A3028 RMK A01 T00340020  RH  091%=      5-min Rain = 0
KCO2 211300Z 08001KT 04/02 A3028 RMK A01 T00350020  RH  090%=      5-min Rain = 0
KCO2 211301Z 07002KT 04/02 A3028 RMK A01 T00350021  RH  090%=      5-min Rain = 0
KCO2 211302Z 07002KT 04/02 A3028 RMK A01 T00360021  RH  090%=      5-min Rain = 0
KCO2 211303Z 06003KT 04/02 A3028 RMK A01 T00350020  RH  090%=      5-min Rain = 0
KCO2 211304Z 06003KT 03/02 A3028 RMK A01 T00340017  RH  089%=      5-min Rain = 0
KCO2 211305Z 07003KT 03/02 A3028 RMK A01 T00330016  RH  089%=      5-min Rain = 0
KCO2 211306Z 07003KT 03/02 A3028 RMK A01 T00320015  RH  089%=      5-min Rain = 0
KCO2 211307Z 07003KT 03/01 A3028 RMK A01 T00310014  RH  089%=      5-min Rain = 0
KCO2 211308Z 07003KT 03/01 A3028 RMK A01 T00310014  RH  089%=      5-min Rain = 0
KCO2 211309Z 07003KT 03/01 A3028 RMK A01 T00300014  RH  089%=      5-min Rain = 0
KCO2 211310Z 07003KT 03/01 A3028 RMK A01 T00300014  RH  089%=      5-min Rain = 0
KCO2 211311Z 07003KT 03/02 A3028 RMK A01 T00300015  RH  090%=      5-min Rain = 0
KCO2 211312Z 07004KT 03/02 A3028 RMK A01 T00310016  RH  090%=      5-min Rain = 0
KCO2 211313Z 07004KT 03/02 A3028 RMK A01 T00310017  RH  090%=      5-min Rain = 0
KCO2 211314Z 07004KT 03/02 A3029 RMK A01 T00320018  RH  090%=      5-min Rain = 0
KCO2 211315Z 07003KT 03/02 A3029 RMK A01 T00340020  RH  091%=      5-min Rain = 0
KCO2 211316Z 07003KT 04/02 A3029 RMK A01 T00350021  RH  091%=      5-min Rain = 0
KCO2 211317Z 07003KT 04/02 A3029 RMK A01 T00370023  RH  091%=      5-min Rain = 0
KCO2 211318Z 07003KT 04/03 A3029 RMK A01 T00390025  RH  091%=      5-min Rain = 0
KCO2 211319Z 07003KT 04/03 A3029 RMK A01 T00400027  RH  091%=      5-min Rain = 0
KCO2 211320Z 07003KT 04/03 A3029 RMK A01 T00420027  RH  090%=      5-min Rain = 0
KCO2 211321Z 07003KT 04/03 A3029 RMK A01 T00430028  RH  090%=      5-min Rain = 0
KCO2 211322Z 07003KT 04/03 A3029 RMK A01 T00440028  RH  089%=      5-min Rain = 0
KCO2 211323Z 07003KT 05/03 A3029 RMK A01 T00450028  RH  089%=      5-min Rain = 0
KCO2 211324Z 07003KT 05/03 A3029 RMK A01 T00460029  RH  089%=      5-min Rain = 0
KCO2 211325Z 07003KT 05/03 A3029 RMK A01 T00480031  RH  088%=      5-min Rain = 0
KCO2 211326Z 08003KT 05/03 A3029 RMK A01 T00500032  RH  088%=      5-min Rain = 0
KCO2 211327Z 08002KT 05/03 A3029 RMK A01 T00510033  RH  088%=      5-min Rain = 0
KCO2 211328Z 08003KT 05/03 A3029 RMK A01 T00530034  RH  087%=      5-min Rain = 0
KCO2 211329Z 08003KT 05/03 A3029 RMK A01 T00540033  RH  087%=      5-min Rain = 0
KCO2 211330Z 08003KT 06/03 A3029 RMK A01 T00550033  RH  086%=      5-min Rain = 0
KCO2 211331Z 09003KT 06/03 A3029 RMK A01 T00550034  RH  086%=      5-min Rain = 0
KCO2 211332Z 08003KT 06/04 A3029 RMK A01 T00560035  RH  086%=      5-min Rain = 0
KCO2 211333Z 08003KT 06/04 A3029 RMK A01 T00570035  RH  086%=      5-min Rain = 0
KCO2 211334Z 08003KT 06/04 A3029 RMK A01 T00570035  RH  085%=      5-min Rain = 0
KCO2 211335Z 08003KT 06/04 A3029 RMK A01 T00580035  RH  085%=      5-min Rain = 0
KCO2 211336Z 07002KT 06/04 A3029 RMK A01 T00590035  RH  085%=      5-min Rain = 0
KCO2 211337Z 07002KT 06/04 A3029 RMK A01 T00590036  RH  085%=      5-min Rain = 0
KCO2 211338Z 07001KT 06/04 A3029 RMK A01 T00600037  RH  085%=      5-min Rain = 0
KCO2 211339Z 07000KT 06/04 A3029 RMK A01 T00610039  RH  085%=      5-min Rain = 0
KCO2 211340Z 08001KT 06/04 A3029 RMK A01 T00630039  RH  085%=      5-min Rain = 0
KCO2 211341Z 09001KT 06/04 A3029 RMK A01 T00640038  RH  084%=      5-min Rain = 0
KCO2 211342Z 09000KT 06/04 A303 RMK A01 T00640039  RH  084%=      5-min Rain = 0
KCO2 211343Z 00000KT 07/04 A303 RMK A01 T00660040  RH  084%=      5-min Rain = 0
KCO2 211344Z 00000KT 07/04 A303 RMK A01 T00670039  RH  083%=      5-min Rain = 0
KCO2 211345Z 00000KT 07/04 A303 RMK A01 T00670038  RH  082%=      5-min Rain = 0
KCO2 211346Z 00000KT 07/04 A303 RMK A01 T00680039  RH  082%=      5-min Rain = 0
KCO2 211347Z 10000KT 07/04 A303 RMK A01 T00690039  RH  082%=      5-min Rain = 0
KCO2 211348Z 11001KT 07/04 A303 RMK A01 T00700041  RH  082%=      5-min Rain = 0
KCO2 211349Z 12001KT 07/04 A3029 RMK A01 T00700040  RH  081%=      5-min Rain = 0
KCO2 211350Z 12000KT 07/04 A303 RMK A01 T00710041  RH  081%=      5-min Rain = 0
KCO2 211351Z 00000KT 07/04 A303 RMK A01 T00720041  RH  081%=      5-min Rain = 0
KCO2 211352Z 00000KT 07/04 A303 RMK A01 T00730041  RH  080%=      5-min Rain = 0
KCO2 211353Z 00000KT 07/04 A303 RMK A01 T00730040  RH  079%=      5-min Rain = 0
KCO2 211354Z 00000KT 07/04 A303 RMK A01 T00740039  RH  079%=      5-min Rain = 0
KCO2 211355Z 12000KT 07/04 A303 RMK A01 T00740039  RH  078%=      5-min Rain = 0
KCO2 211356Z 12000KT 08/04 A303 RMK A01 T00760041  RH  078%=      5-min Rain = 0
KCO2 211357Z 12000KT 08/04 A303 RMK A01 T00780044  RH  079%=      5-min Rain = 0
KCO2 211358Z 12000KT 08/04 A303 RMK A01 T00800043  RH  078%=      5-min Rain = 0
KCO2 211359Z 10001KT 08/04 A303 RMK A01 T00810042  RH  076%=      5-min Rain = 0
KCO2 211400Z 09001KT 08/04 A303 RMK A01 T00810041  RH  076%=      5-min Rain = 0
KCO2 211401Z 08001KT 08/04 A303 RMK A01 T00820043  RH  076%=      5-min Rain = 0
KCO2 211402Z 06001KT 08/04 A303 RMK A01 T00820042  RH  076%=      5-min Rain = 0
KCO2 211403Z 06000KT 08/04 A303 RMK A01 T00830043  RH  076%=      5-min Rain = 0
KCO2 211404Z 05001KT 08/04 A3029 RMK A01 T00840044  RH  076%=      5-min Rain = 0
KCO2 211405Z 05001KT 08/04 A3029 RMK A01 T00840042  RH  075%=      5-min Rain = 0
KCO2 211406Z 04001KT 08/04 A3029 RMK A01 T00840042  RH  075%=      5-min Rain = 0
KCO2 211407Z 05001KT 08/04 A3029 RMK A01 T00840043  RH  076%=      5-min Rain = 0
KCO2 211408Z 05001KT 08/04 A303 RMK A01 T00840042  RH  075%=      5-min Rain = 0
KCO2 211409Z 06000KT 08/04 A303 RMK A01 T00840043  RH  075%=      5-min Rain = 0
KCO2 211410Z 06001KT 09/05 A303 RMK A01 T00850045  RH  075%=      5-min Rain = 0
KCO2 211411Z 05001KT 09/04 A303 RMK A01 T00860044  RH  075%=      5-min Rain = 0
KCO2 211412Z 04000KT 09/04 A303 RMK A01 T00860043  RH  075%=      5-min Rain = 0
KCO2 211413Z 00000KT 09/04 A303 RMK A01 T00860043  RH  074%=      5-min Rain = 0
KCO2 211414Z 00000KT 09/04 A303 RMK A01 T00870043  RH  074%=      5-min Rain = 0
KCO2 211415Z 24001KT 09/04 A303 RMK A01 T00880043  RH  073%=      5-min Rain = 0
KCO2 211416Z 22001KT 09/04 A303 RMK A01 T00880044  RH  074%=      5-min Rain = 0
KCO2 211417Z 23002KT 09/04 A3031 RMK A01 T00880044  RH  074%=      5-min Rain = 0
KCO2 211418Z 23002KT 09/05 A303 RMK A01 T00880045  RH  075%=      5-min Rain = 0
KCO2 211419Z 25002KT 09/05 A303 RMK A01 T00890045  RH  074%=      5-min Rain = 0
KCO2 211420Z 24002KT 09/05 A303 RMK A01 T00890045  RH  074%=      5-min Rain = 0
KCO2 211421Z 24002KT 09/05 A303 RMK A01 T00890045  RH  074%=      5-min Rain = 0
KCO2 211422Z 23002KT 09/05 A303 RMK A01 T00900045  RH  074%=      5-min Rain = 0
KCO2 211423Z 23002KT 09/05 A303 RMK A01 T00900045  RH  073%=      5-min Rain = 0
KCO2 211424Z 23002KT 09/04 A303 RMK A01 T00900044  RH  073%=      5-min Rain = 0
KCO2 211425Z 25002KT 09/05 A3031 RMK A01 T00900045  RH  074%=      5-min Rain = 0
KCO2 211426Z 23002KT 09/05 A3031 RMK A01 T00900045  RH  073%=      5-min Rain = 0
KCO2 211427Z 23002KT 09/05 A3031 RMK A01 T00910047  RH  074%=      5-min Rain = 0
KCO2 211428Z 25002KT 09/05 A3031 RMK A01 T00920046  RH  073%=      5-min Rain = 0
KCO2 211429Z 24002KT 09/05 A3031 RMK A01 T00930045  RH  072%=      5-min Rain = 0
KCO2 211430Z 22002KT 09/04 A3031 RMK A01 T00930044  RH  071%=      5-min Rain = 0
KCO2 211431Z 24002KT 09/04 A3031 RMK A01 T00940043  RH  070%=      5-min Rain = 0
KCO2 211432Z 24001KT 10/04 A3031 RMK A01 T00950042  RH  069%=      5-min Rain = 0
KCO2 211433Z 24002KT 10/04 A3031 RMK A01 T00960043  RH  070%=      5-min Rain = 0
KCO2 211434Z 24003KT 10/05 A3031 RMK A01 T00970045  RH  070%=      5-min Rain = 0
KCO2 211435Z 26003KT 10/04 A3031 RMK A01 T00980042  RH  068%=      5-min Rain = 0
KCO2 211436Z 25002KT 10/04 A3031 RMK A01 T00980039  RH  067%=      5-min Rain = 0
KCO2 211437Z 25002KT 10/04 A3031 RMK A01 T00990039  RH  066%=      5-min Rain = 0
KCO2 211438Z 24001KT 10/04 A3031 RMK A01 T00990040  RH  067%=      5-min Rain = 0
KCO2 211439Z 23002KT 10/04 A3031 RMK A01 T01000044  RH  068%=      5-min Rain = 0
KCO2 211440Z 24003KT 10/04 A3031 RMK A01 T01010042  RH  067%=      5-min Rain = 0
KCO2 211441Z 25003KT 10/04 A3031 RMK A01 T01010042  RH  067%=      5-min Rain = 0
KCO2 211442Z 26004KT 10/04 A3031 RMK A01 T01020039  RH  065%=      5-min Rain = 0
KCO2 211443Z 25003KT 10/04 A3031 RMK A01 T01020039  RH  065%=      5-min Rain = 0
KCO2 211444Z 25003KT 10/04 A3031 RMK A01 T01030040  RH  065%=      5-min Rain = 0
KCO2 211445Z 24002KT 10/04 A3031 RMK A01 T01030040  RH  065%=      5-min Rain = 0
KCO2 211446Z 25003KT 10/04 A3031 RMK A01 T01030041  RH  065%=      5-min Rain = 0
KCO2 211447Z 24003KT 10/04 A3031 RMK A01 T01040039  RH  064%=      5-min Rain = 0
KCO2 211448Z 24003KT 10/04 A3031 RMK A01 T01030040  RH  065%=      5-min Rain = 0
KCO2 211449Z 25003KT 10/04 A3031 RMK A01 T01040040  RH  064%=      5-min Rain = 0
KCO2 211450Z 25003KT 11/04 A3031 RMK A01 T01050039  RH  064%=      5-min Rain = 0
KCO2 211451Z 24004KT 10/04 A3031 RMK A01 T01040040  RH  064%=      5-min Rain = 0
KCO2 211452Z 25004KT 11/04 A3031 RMK A01 T01060041  RH  064%=      5-min Rain = 0
KCO2 211453Z 25003KT 11/04 A3031 RMK A01 T01070040  RH  063%=      5-min Rain = 0
KCO2 211454Z 25003KT 11/04 A3031 RMK A01 T01070039  RH  063%=      5-min Rain = 0
KCO2 211455Z 27002KT 11/04 A3031 RMK A01 T01070039  RH  063%=      5-min Rain = 0
KCO2 211456Z 29003KT 11/04 A3031 RMK A01 T01080040  RH  063%=      5-min Rain = 0
KCO2 211457Z 29003KT 11/04 A3031 RMK A01 T01080040  RH  063%=      5-min Rain = 0
KCO2 211458Z 28003KT 11/04 A3031 RMK A01 T01070039  RH  063%=      5-min Rain = 0
KCO2 211459Z 28004KT 11/04 A3031 RMK A01 T01080042  RH  064%=      5-min Rain = 0
KCO2 211500Z 24003KT 11/04 A3031 RMK A01 T01090041  RH  063%=      5-min Rain = 0
KCO2 211501Z 25002KT 11/04 A3031 RMK A01 T01090042  RH  063%=      5-min Rain = 0
KCO2 211502Z 26002KT 11/04 A3031 RMK A01 T01110042  RH  063%=      5-min Rain = 0
KCO2 211503Z 28003KT 11/04 A3031 RMK A01 T01120041  RH  062%=      5-min Rain = 0
KCO2 211504Z 28003KT 11/04 A3031 RMK A01 T01120042  RH  062%=      5-min Rain = 0
KCO2 211505Z 29003KT 11/04 A3031 RMK A01 T01140043  RH  061%=      5-min Rain = 0
KCO2 211506Z 28003KT 12/04 A3031 RMK A01 T01150042  RH  061%=      5-min Rain = 0
KCO2 211507Z 28003KT 12/04 A3031 RMK A01 T01150042  RH  061%=      5-min Rain = 0
KCO2 211508Z 28003KT 12/04 A3031 RMK A01 T01150042  RH  061%=      5-min Rain = 0
KCO2 211509Z 27003KT 12/04 A3031 RMK A01 T01150042  RH  061%=      5-min Rain = 0
KCO2 211510Z 28002KT 12/04 A3031 RMK A01 T01150041  RH  060%=      5-min Rain = 0
KCO2 211511Z 30002KT 12/04 A3031 RMK A01 T01160043  RH  061%=      5-min Rain = 0
KCO2 211512Z 24003KT 12/04 A3031 RMK A01 T01170044  RH  061%=      5-min Rain = 0
KCO2 211513Z 23004KT 12/04 A3031 RMK A01 T01190042  RH  059%=      5-min Rain = 0
KCO2 211514Z 23003KT 12/04 A3031 RMK A01 T01190042  RH  060%=      5-min Rain = 0
KCO2 211515Z 21003KT 12/04 A3031 RMK A01 T01200044  RH  059%=      5-min Rain = 0
KCO2 211516Z 23004KT 12/05 A3031 RMK A01 T01230046  RH  059%=      5-min Rain = 0
KCO2 211517Z 20003KT 12/04 A3031 RMK A01 T01240042  RH  057%=      5-min Rain = 0
KCO2 211518Z 22004KT 12/04 A3031 RMK A01 T01230042  RH  058%=      5-min Rain = 0
KCO2 211519Z 22003KT 12/05 A3031 RMK A01 T01240046  RH  059%=      5-min Rain = 0
KCO2 211520Z 27002KT 13/04 A3031 RMK A01 T01250043  RH  057%=      5-min Rain = 0
KCO2 211521Z 25003KT 13/04 A3031 RMK A01 T01250041  RH  057%=      5-min Rain = 0
KCO2 211522Z 23002KT 13/04 A3031 RMK A01 T01250044  RH  058%=      5-min Rain = 0
KCO2 211523Z 23003KT 13/05 A3031 RMK A01 T01280046  RH  057%=      5-min Rain = 0
KCO2 211524Z 24002KT 13/05 A3031 RMK A01 T01290045  RH  057%=      5-min Rain = 0
KCO2 211525Z 23003KT 13/05 A3031 RMK A01 T01290045  RH  057%=      5-min Rain = 0
KCO2 211526Z 23003KT 13/05 A3031 RMK A01 T01300046  RH  057%=      5-min Rain = 0
KCO2 211527Z 21003KT 13/05 A3031 RMK A01 T01310046  RH  056%=      5-min Rain = 0
KCO2 211528Z 21002KT 13/05 A3031 RMK A01 T01320047  RH  056%=      5-min Rain = 0
KCO2 211529Z 22004KT 14/05 A3031 RMK A01 T01350050  RH  056%=      5-min Rain = 0
KCO2 211530Z 21004KT 14/05 A3031 RMK A01 T01370047  RH  054%=      5-min Rain = 0
KCO2 211531Z 21003KT 14/05 A3031 RMK A01 T01360045  RH  054%=      5-min Rain = 0
KCO2 211532Z 20002KT 14/05 A3031 RMK A01 T01350045  RH  054%=      5-min Rain = 0
KCO2 211533Z 20005KT 14/05 A3031 RMK A01 T01360046  RH  055%=      5-min Rain = 0
KCO2 211534Z 19003KT 14/05 A3031 RMK A01 T01370045  RH  054%=      5-min Rain = 0
KCO2 211535Z 19003KT 14/05 A3031 RMK A01 T01370046  RH  054%=      5-min Rain = 0
KCO2 211536Z 20004KT 14/05 A3031 RMK A01 T01380046  RH  054%=      5-min Rain = 0
KCO2 211537Z 23003KT 14/05 A3031 RMK A01 T01380046  RH  054%=      5-min Rain = 0
KCO2 211538Z 23004KT 14/05 A3031 RMK A01 T01380046  RH  054%=      5-min Rain = 0
KCO2 211539Z 20002KT 14/05 A3031 RMK A01 T01390047  RH  054%=      5-min Rain = 0
KCO2 211540Z 18003KT 14/05 A303 RMK A01 T01410050  RH  054%=      5-min Rain = 0
KCO2 211541Z 16003KT 14/05 A303 RMK A01 T01430049  RH  053%=      5-min Rain = 0
KCO2 211542Z 18005KT 14/05 A303 RMK A01 T01440048  RH  052%=      5-min Rain = 0
KCO2 211543Z 18004KT 14/05 A303 RMK A01 T01440047  RH  052%=      5-min Rain = 0
KCO2 211544Z 19005KT 14/05 A303 RMK A01 T01420045  RH  052%=      5-min Rain = 0
KCO2 211545Z 18004KT 14/04 A303 RMK A01 T01390044  RH  053%=      5-min Rain = 0
KCO2 211546Z 16003KT 14/04 A303 RMK A01 T01370044  RH  053%=      5-min Rain = 0
KCO2 211547Z 17003KT 14/05 A303 RMK A01 T01380045  RH  054%=      5-min Rain = 0
KCO2 211548Z 20004KT 14/05 A303 RMK A01 T01390045  RH  053%=      5-min Rain = 0
KCO2 211549Z 20003KT 14/05 A303 RMK A01 T01400045  RH  053%=      5-min Rain = 0
KCO2 211550Z 19004KT 14/05 A303 RMK A01 T01410047  RH  053%=      5-min Rain = 0
KCO2 211551Z 21004KT 14/05 A303 RMK A01 T01420046  RH  052%=      5-min Rain = 0
KCO2 211552Z 23003KT 14/05 A303 RMK A01 T01430046  RH  052%=      5-min Rain = 0
KCO2 211553Z 23003KT 14/05 A303 RMK A01 T01430047  RH  052%=      5-min Rain = 0
KCO2 211554Z 20003KT 15/05 A303 RMK A01 T01460051  RH  053%=      5-min Rain = 0
KCO2 211555Z 22003KT 15/05 A303 RMK A01 T01490048  RH  051%=      5-min Rain = 0
KCO2 211556Z 20005KT 15/05 A303 RMK A01 T01480047  RH  051%=      5-min Rain = 0
KCO2 211557Z 19004KT 15/05 A3031 RMK A01 T01470047  RH  051%=      5-min Rain = 0
KCO2 211558Z 18002KT 15/05 A3031 RMK A01 T01480047  RH  051%=      5-min Rain = 0
KCO2 211559Z 14000KT 15/05 A3031 RMK A01 T01480046  RH  050%=      5-min Rain = 0
KCO2 211600Z 25002KT 15/05 A3031 RMK A01 T01490048  RH  051%=      5-min Rain = 0
KCO2 211601Z 22003KT 15/05 A3031 RMK A01 T01510048  RH  050%=      5-min Rain = 0
KCO2 211602Z 19004KT 15/05 A3031 RMK A01 T01510047  RH  050%=      5-min Rain = 0
KCO2 211603Z 19003KT 15/05 A3031 RMK A01 T01510047  RH  050%=      5-min Rain = 0
KCO2 211604Z 18002KT 15/05 A3031 RMK A01 T01510050  RH  051%=      5-min Rain = 0
KCO2 211605Z 19005KT 16/05 A3031 RMK A01 T01550050  RH  050%=      5-min Rain = 0
KCO2 211606Z 18004KT 16/05 A3031 RMK A01 T01550049  RH  049%=      5-min Rain = 0
KCO2 211607Z 16003KT 16/05 A303 RMK A01 T01550048  RH  049%=      5-min Rain = 0
KCO2 211608Z 17001KT 15/05 A3031 RMK A01 T01540047  RH  049%=      5-min Rain = 0
KCO2 211609Z 20003KT 15/05 A3031 RMK A01 T01530048  RH  050%=      5-min Rain = 0
KCO2 211610Z 22003KT 16/05 A3031 RMK A01 T01550050  RH  050%=      5-min Rain = 0
KCO2 211611Z 18004KT 16/05 A3031 RMK A01 T01560049  RH  049%=      5-min Rain = 0
KCO2 211612Z 19003KT 16/05 A3031 RMK A01 T01570048  RH  048%=      5-min Rain = 0
KCO2 211613Z 17002KT 16/05 A3031 RMK A01 T01560047  RH  048%=      5-min Rain = 0
KCO2 211614Z 19004KT 16/05 A3031 RMK A01 T01560049  RH  049%=      5-min Rain = 0
KCO2 211615Z 20004KT 16/05 A303 RMK A01 T01580051  RH  049%=      5-min Rain = 0
KCO2 211616Z 18002KT 16/05 A303 RMK A01 T01600051  RH  048%=      5-min Rain = 0
KCO2 211617Z 21003KT 16/05 A303 RMK A01 T01610049  RH  047%=      5-min Rain = 0
KCO2 211618Z 19005KT 16/05 A303 RMK A01 T01600049  RH  047%=      5-min Rain = 0
KCO2 211619Z 22004KT 16/05 A303 RMK A01 T01600049  RH  048%=      5-min Rain = 0
KCO2 211620Z 24003KT 16/05 A303 RMK A01 T01610050  RH  048%=      5-min Rain = 0
KCO2 211621Z 25003KT 16/05 A303 RMK A01 T01610049  RH  047%=      5-min Rain = 0
KCO2 211622Z 23003KT 16/05 A303 RMK A01 T01610049  RH  048%=      5-min Rain = 0
KCO2 211623Z 23004KT 16/05 A303 RMK A01 T01610049  RH  047%=      5-min Rain = 0
KCO2 211624Z 23003KT 16/05 A303 RMK A01 T01620050  RH  047%=      5-min Rain = 0
KCO2 211625Z 23003KT 16/05 A303 RMK A01 T01640052  RH  047%=      5-min Rain = 0
KCO2 211626Z 21005KT 16/05 A303 RMK A01 T01640051  RH  047%=      5-min Rain = 0
KCO2 211627Z 20005KT 16/05 A303 RMK A01 T01640050  RH  047%=      5-min Rain = 0
KCO2 211628Z 22003KT 16/05 A303 RMK A01 T01630049  RH  047%=      5-min Rain = 0
KCO2 211629Z 21002KT 16/05 A303 RMK A01 T01640051  RH  047%=      5-min Rain = 0
KCO2 211630Z 23003KT 17/05 A303 RMK A01 T01650050  RH  046%=      5-min Rain = 0
KCO2 211631Z 23004KT 17/05 A303 RMK A01 T01650049  RH  046%=      5-min Rain = 0
KCO2 211632Z 25003KT 17/05 A303 RMK A01 T01660048  RH  046%=      5-min Rain = 0
KCO2 211633Z 22003KT 17/05 A303 RMK A01 T01650049  RH  046%=      5-min Rain = 0
KCO2 211634Z 21003KT 17/05 A303 RMK A01 T01670050  RH  046%=      5-min Rain = 0
KCO2 211635Z 23001KT 17/05 A303 RMK A01 T01670050  RH  046%=      5-min Rain = 0
KCO2 211636Z 24004KT 17/05 A303 RMK A01 T01680052  RH  046%=      5-min Rain = 0
KCO2 211637Z 24002KT 17/05 A303 RMK A01 T01700049  RH  045%=      5-min Rain = 0
KCO2 211638Z 25001KT 17/05 A303 RMK A01 T01690049  RH  045%=      5-min Rain = 0
KCO2 211639Z 23005KT 17/05 A303 RMK A01 T01700051  RH  045%=      5-min Rain = 0
KCO2 211640Z 23005KT 17/05 A303 RMK A01 T01720051  RH  045%=      5-min Rain = 0
KCO2 211641Z 23005KT 17/05 A303 RMK A01 T01730050  RH  044%=      5-min Rain = 0
KCO2 211642Z 24004KT 17/05 A303 RMK A01 T01730049  RH  044%=      5-min Rain = 0
KCO2 211643Z 23003KT 17/05 A303 RMK A01 T01710046  RH  043%=      5-min Rain = 0
KCO2 211644Z 22004KT 17/05 A303 RMK A01 T01710047  RH  044%=      5-min Rain = 0
KCO2 211645Z 24003KT 17/05 A303 RMK A01 T01720049  RH  044%=      5-min Rain = 0
KCO2 211646Z 24002KT 17/05 A303 RMK A01 T01730048  RH  044%=      5-min Rain = 0
KCO2 211647Z 24006KT 17/05 A303 RMK A01 T01720047  RH  043%=      5-min Rain = 0
KCO2 211648Z 26004KT 17/05 A303 RMK A01 T01720045  RH  043%=      5-min Rain = 0
KCO2 211649Z 25003KT 17/05 A303 RMK A01 T01690045  RH  044%=      5-min Rain = 0
KCO2 211650Z 21006KT 17/05 A303 RMK A01 T01690047  RH  044%=      5-min Rain = 0
KCO2 211651Z 22005KT 17/05 A303 RMK A01 T01700046  RH  044%=      5-min Rain = 0
KCO2 211652Z 19004KT 17/05 A303 RMK A01 T01710045  RH  043%=      5-min Rain = 0
KCO2 211653Z 19005KT 17/04 A303 RMK A01 T01720044  RH  043%=      5-min Rain = 0
KCO2 211654Z 19004KT 17/04 A303 RMK A01 T01720043  RH  042%=      5-min Rain = 0
KCO2 211655Z 20002KT 17/05 A303 RMK A01 T01730046  RH  043%=      5-min Rain = 0
KCO2 211656Z 22004KT 18/05 A303 RMK A01 T01760049  RH  043%=      5-min Rain = 0
KCO2 211657Z 22005KT 18/05 A303 RMK A01 T01790047  RH  042%=      5-min Rain = 0
KCO2 211658Z 22005KT 18/05 A303 RMK A01 T01810045  RH  041%=      5-min Rain = 0
KCO2 211659Z 24004KT 18/04 A303 RMK A01 T01790036  RH  039%=      5-min Rain = 0
KCO2 211700Z 23004KT 18/04 A303 RMK A01 T01770038  RH  040%=      5-min Rain = 0
KCO2 211701Z 23004KT 17/04 A303 RMK A01 T01740037  RH  040%=      5-min Rain = 0
KCO2 211702Z 22004KT 18/04 A303 RMK A01 T01750037  RH  040%=      5-min Rain = 0
KCO2 211703Z 21003KT 18/04 A303 RMK A01 T01760038  RH  040%=      5-min Rain = 0
KCO2 211704Z 20005KT 18/04 A303 RMK A01 T01790035  RH  038%=      5-min Rain = 0
KCO2 211705Z 21002KT 18/03 A3029 RMK A01 T01790033  RH  038%=      5-min Rain = 0
KCO2 211706Z 20002KT 18/03 A3029 RMK A01 T01760033  RH  038%=      5-min Rain = 0
KCO2 211707Z 15002KT 18/03 A3029 RMK A01 T01760030  RH  038%=      5-min Rain = 0
KCO2 211708Z 15003KT 18/03 A3029 RMK A01 T01760032  RH  038%=      5-min Rain = 0
KCO2 211709Z 19004KT 18/04 A3029 RMK A01 T01760035  RH  039%=      5-min Rain = 0
KCO2 211710Z 21002KT 18/04 A3029 RMK A01 T01760035  RH  039%=      5-min Rain = 0
KCO2 211711Z 27001KT 18/04 A3029 RMK A01 T01760038  RH  040%=      5-min Rain = 0
KCO2 211712Z 27002KT 18/04 A3029 RMK A01 T01760038  RH  040%=      5-min Rain = 0
KCO2 211713Z 24002KT 18/04 A3029 RMK A01 T01760041  RH  041%=      5-min Rain = 0
KCO2 211714Z 29001KT 18/04 A3029 RMK A01 T01770037  RH  039%=      5-min Rain = 0
KCO2 211715Z 24002KT 18/04 A3029 RMK A01 T01770036  RH  039%=      5-min Rain = 0
KCO2 211716Z 24004KT 18/03 A3029 RMK A01 T01770031  RH  038%=      5-min Rain = 0
KCO2 211717Z 24003KT 18/03 A3029 RMK A01 T01770029  RH  037%=      5-min Rain = 0
KCO2 211718Z 25003KT 18/02 A3029 RMK A01 T01770024  RH  036%=      5-min Rain = 0
KCO2 211719Z 25002KT 18/03 A3028 RMK A01 T01750029  RH  038%=      5-min Rain = 0
KCO2 211720Z 28004KT 18/04 A3028 RMK A01 T01760036  RH  039%=      5-min Rain = 0
KCO2 211721Z 29003KT 18/04 A3028 RMK A01 T01760036  RH  039%=      5-min Rain = 0
KCO2 211722Z 31002KT 18/03 A3028 RMK A01 T01760034  RH  039%=      5-min Rain = 0
KCO2 211723Z 23003KT 18/04 A3028 RMK A01 T01760035  RH  039%=      5-min Rain = 0
KCO2 211724Z 20003KT 18/03 A3028 RMK A01 T01780032  RH  038%=      5-min Rain = 0
KCO2 211725Z 18002KT 18/04 A3028 RMK A01 T01810035  RH  038%=      5-min Rain = 0
KCO2 211726Z 20003KT 19/03 A3028 RMK A01 T01850032  RH  036%=      5-min Rain = 0
KCO2 211727Z 25004KT 19/03 A3028 RMK A01 T01870032  RH  036%=      5-min Rain = 0
KCO2 211728Z 26004KT 19/03 A3028 RMK A01 T01870031  RH  035%=      5-min Rain = 0
KCO2 211729Z 25004KT 19/03 A3028 RMK A01 T01870028  RH  035%=      5-min Rain = 0
KCO2 211730Z 26004KT 19/03 A3028 RMK A01 T01860029  RH  035%=      5-min Rain = 0
KCO2 211731Z 25004KT 19/03 A3028 RMK A01 T01880027  RH  034%=      5-min Rain = 0
KCO2 211732Z 26004KT 19/03 A3028 RMK A01 T01880026  RH  034%=      5-min Rain = 0
KCO2 211733Z 25003KT 19/03 A3028 RMK A01 T01880026  RH  034%=      5-min Rain = 0
KCO2 211734Z 25004KT 19/03 A3028 RMK A01 T01870025  RH  034%=      5-min Rain = 0
KCO2 211735Z 21002KT 19/02 A3028 RMK A01 T01870024  RH  034%=      5-min Rain = 0
KCO2 211736Z 19003KT 19/02 A3028 RMK A01 T01880021  RH  033%=      5-min Rain = 0
KCO2 211737Z 17004KT 19/01 A3028 RMK A01 T01890014  RH  031%=      5-min Rain = 0
KCO2 211738Z 15003KT 19/01 A3028 RMK A01 T01910010  RH  030%=      5-min Rain = 0
KCO2 211739Z 16004KT 19/01 A3028 RMK A01 T01910014  RH  031%=      5-min Rain = 0
KCO2 211740Z 12003KT 19/01 A3028 RMK A01 T01910010  RH  030%=      5-min Rain = 0
KCO2 211741Z 11003KT 19/01 A3028 RMK A01 T01910007  RH  029%=      5-min Rain = 0
KCO2 211742Z 09001KT 19/01 A3028 RMK A01 T01900006  RH  029%=      5-min Rain = 0
KCO2 211743Z 03001KT 19/00 A3028 RMK A01 T01890004  RH  029%=      5-min Rain = 0
KCO2 211744Z 07002KT 19/01 A3028 RMK A01 T01890007  RH  029%=      5-min Rain = 0
KCO2 211745Z 11004KT 19/01 A3028 RMK A01 T01900009  RH  030%=      5-min Rain = 0
KCO2 211746Z 07003KT 19/01 A3028 RMK A01 T01900011  RH  030%=      5-min Rain = 0
KCO2 211747Z 08002KT 19/01 A3028 RMK A01 T01880008  RH  030%=      5-min Rain = 0
KCO2 211748Z 10002KT 19/01 A3028 RMK A01 T01880010  RH  030%=      5-min Rain = 0
KCO2 211749Z 13004KT 19/01 A3028 RMK A01 T01890014  RH  031%=      5-min Rain = 0
KCO2 211750Z 12002KT 19/02 A3028 RMK A01 T01900015  RH  031%=      5-min Rain = 0
KCO2 211751Z 10001KT 19/02 A3028 RMK A01 T01900016  RH  031%=      5-min Rain = 0
KCO2 211752Z 00001KT 19/02 A3028 RMK A01 T01900019  RH  032%=      5-min Rain = 0
KCO2 211753Z 26001KT 19/02 A3028 RMK A01 T01900019  RH  032%=      5-min Rain = 0
KCO2 211754Z 17003KT 19/02 A3028 RMK A01 T01920016  RH  031%=      5-min Rain = 0
KCO2 211755Z 20005KT 20/01 A3027 RMK A01 T01950008  RH  029%=      5-min Rain = 0
KCO2 211756Z 18005KT 20/01 A3027 RMK A01 T01970005  RH  028%=      5-min Rain = 0
KCO2 211757Z 19006KT 20/01 A3027 RMK A01 T01960006  RH  028%=      5-min Rain = 0
KCO2 211758Z 18007KT 20/01 A3027 RMK A01 T01980010  RH  028%=      5-min Rain = 0
KCO2 211759Z 18007KT 20/M00 A3027 RMK A01 T02021003  RH  025%=      5-min Rain = 0
KCO2 211800Z 21006KT 20/M00 A3027 RMK A01 T02001003  RH  026%=      5-min Rain = 0
KCO2 211801Z 22006KT 20/01 A3027 RMK A01 T02000006  RH  027%=      5-min Rain = 0
KCO2 211802Z 21006KT 20/01 A3027 RMK A01 T02020005  RH  027%=      5-min Rain = 0
KCO2 211803Z 20004KT 20/00 A3027 RMK A01 T020200-0  RH  026%=      5-min Rain = 0
KCO2 211804Z 14004KT 20/M00 A3027 RMK A01 T02001004  RH  025%=      5-min Rain = 0
KCO2 211805Z 17004KT 20/M01 A3027 RMK A01 T01971008  RH  025%=      5-min Rain = 0
KCO2 211806Z 21005KT 20/00 A3027 RMK A01 T019600-0  RH  027%=      5-min Rain = 0
KCO2 211807Z 17006KT 20/01 A3027 RMK A01 T02000007  RH  028%=      5-min Rain = 0
KCO2 211808Z 15006KT 20/01 A3027 RMK A01 T02040011  RH  028%=      5-min Rain = 0
KCO2 211809Z 17005KT 21/01 A3027 RMK A01 T02050009  RH  027%=      5-min Rain = 0
KCO2 211810Z 18002KT 20/00 A3027 RMK A01 T02030004  RH  026%=      5-min Rain = 0
KCO2 211811Z 13002KT 20/01 A3027 RMK A01 T02000006  RH  027%=      5-min Rain = 0
KCO2 211812Z 13007KT 20/00 A3027 RMK A01 T02010002  RH  026%=      5-min Rain = 0
KCO2 211813Z 13007KT 20/M01 A3027 RMK A01 T02021009  RH  024%=      5-min Rain = 0
KCO2 211814Z 14008KT 20/M01 A3027 RMK A01 T02031006  RH  025%=      5-min Rain = 0
KCO2 211815Z 14009KT 20/M00 A3027 RMK A01 T02041001  RH  025%=      5-min Rain = 0
KCO2 211816Z 15003KT 21/M00 A3027 RMK A01 T02051001  RH  025%=      5-min Rain = 0
KCO2 211817Z 13008KT 20/M00 A3027 RMK A01 T02041003  RH  025%=      5-min Rain = 0
KCO2 211818Z 11007KT 20/M00 A3027 RMK A01 T02041004  RH  025%=      5-min Rain = 0
KCO2 211819Z 12008KT 20/M00 A3027 RMK A01 T02031004  RH  025%=      5-min Rain = 0
KCO2 211820Z 10005KT 20/M01 A3027 RMK A01 T02001006  RH  025%=      5-min Rain = 0
KCO2 211821Z 10007KT 20/M00 A3027 RMK A01 T01991001  RH  026%=      5-min Rain = 0
KCO2 211822Z 09006KT 20/M01 A3027 RMK A01 T02011005  RH  025%=      5-min Rain = 0
KCO2 211823Z 10003KT 20/M01 A3027 RMK A01 T01991011  RH  024%=      5-min Rain = 0
KCO2 211824Z 10005KT 20/M01 A3026 RMK A01 T01971007  RH  025%=      5-min Rain = 0
KCO2 211825Z 11004KT 20/M00 A3026 RMK A01 T01961003  RH  026%=      5-min Rain = 0
KCO2 211826Z 15004KT 20/00 A3026 RMK A01 T01970001  RH  027%=      5-min Rain = 0
KCO2 211827Z 16005KT 20/M00 A3026 RMK A01 T02001002  RH  026%=      5-min Rain = 0
KCO2 211828Z 15004KT 20/00 A3026 RMK A01 T02000002  RH  026%=      5-min Rain = 0
KCO2 211829Z 16005KT 20/00 A3026 RMK A01 T02010002  RH  026%=      5-min Rain = 0
KCO2 211830Z 18006KT 20/00 A3026 RMK A01 T02030004  RH  026%=      5-min Rain = 0
KCO2 211831Z 19006KT 20/00 A3026 RMK A01 T02030001  RH  026%=      5-min Rain = 0
KCO2 211832Z 21002KT 20/00 A3026 RMK A01 T02000001  RH  026%=      5-min Rain = 0
KCO2 211833Z 16006KT 20/01 A3026 RMK A01 T02000008  RH  028%=      5-min Rain = 0
KCO2 211834Z 13006KT 20/01 A3026 RMK A01 T02030009  RH  027%=      5-min Rain = 0
KCO2 211835Z 14006KT 21/01 A3026 RMK A01 T02050007  RH  027%=      5-min Rain = 0
KCO2 211836Z 17006KT 20/01 A3026 RMK A01 T02010008  RH  027%=      5-min Rain = 0
KCO2 211837Z 18004KT 20/01 A3026 RMK A01 T01980007  RH  028%=      5-min Rain = 0
KCO2 211838Z 18004KT 20/01 A3026 RMK A01 T01970007  RH  028%=      5-min Rain = 0
KCO2 211839Z 17002KT 20/00 A3026 RMK A01 T01970003  RH  027%=      5-min Rain = 0
KCO2 211840Z 19002KT 20/01 A3026 RMK A01 T01960005  RH  028%=      5-min Rain = 0
KCO2 211841Z 16006KT 20/01 A3025 RMK A01 T01970011  RH  029%=      5-min Rain = 0
KCO2 211842Z 17006KT 20/00 A3025 RMK A01 T02000001  RH  026%=      5-min Rain = 0
KCO2 211843Z 19006KT 20/00 A3025 RMK A01 T02030002  RH  026%=      5-min Rain = 0
KCO2 211844Z 18008KT 20/00 A3025 RMK A01 T02040002  RH  026%=      5-min Rain = 0
KCO2 211845Z 17006KT 21/00 A3025 RMK A01 T02050002  RH  026%=      5-min Rain = 0
KCO2 211846Z 18005KT 20/00 A3025 RMK A01 T02020002  RH  026%=      5-min Rain = 0
KCO2 211847Z 20005KT 20/01 A3025 RMK A01 T02020005  RH  027%=      5-min Rain = 0
KCO2 211848Z 18003KT 20/01 A3025 RMK A01 T02030007  RH  027%=      5-min Rain = 0
KCO2 211849Z 18006KT 21/01 A3025 RMK A01 T02050007  RH  027%=      5-min Rain = 0
KCO2 211850Z 16004KT 21/00 A3025 RMK A01 T02050002  RH  026%=      5-min Rain = 0
KCO2 211851Z 15009KT 20/01 A3024 RMK A01 T02020007  RH  027%=      5-min Rain = 0
KCO2 211852Z 12008KT 20/01 A3024 RMK A01 T02030012  RH  028%=      5-min Rain = 0
KCO2 211853Z 14008KT 20/01 A3024 RMK A01 T02040008  RH  027%=      5-min Rain = 0
KCO2 211854Z 12006KT 20/01 A3024 RMK A01 T02040006  RH  027%=      5-min Rain = 0
KCO2 211855Z 12004KT 20/01 A3024 RMK A01 T02040006  RH  027%=      5-min Rain = 0
KCO2 211856Z 14007KT 20/01 A3024 RMK A01 T02040006  RH  027%=      5-min Rain = 0
KCO2 211857Z 13007KT 21/01 A3024 RMK A01 T02060005  RH  026%=      5-min Rain = 0
KCO2 211858Z 15007G12KT 21/00 A3024 RMK A01 T02050003  RH  026%=      5-min Rain = 0
KCO2 211859Z 15008KT 20/01 A3024 RMK A01 T02040010  RH  027%=      5-min Rain = 0
KCO2 211900Z 13008KT 20/01 A3024 RMK A01 T02030010  RH  028%=      5-min Rain = 0
KCO2 211901Z 13010KT 20/01 A3024 RMK A01 T02020013  RH  028%=      5-min Rain = 0
KCO2 211902Z 13008KT 20/01 A3024 RMK A01 T02010010  RH  028%=      5-min Rain = 0
KCO2 211903Z 13008KT 20/01 A3023 RMK A01 T02000010  RH  028%=      5-min Rain = 0
KCO2 211904Z 13005KT 20/01 A3023 RMK A01 T01990007  RH  028%=      5-min Rain = 0
KCO2 211905Z 15008KT 20/01 A3023 RMK A01 T01980008  RH  028%=      5-min Rain = 0
KCO2 211906Z 15009KT 20/01 A3023 RMK A01 T01980006  RH  028%=      5-min Rain = 0
KCO2 211907Z 16008KT 20/00 A3023 RMK A01 T01980004  RH  027%=      5-min Rain = 0
KCO2 211908Z 16006KT 20/01 A3023 RMK A01 T01990005  RH  027%=      5-min Rain = 0
KCO2 211909Z 14005KT 20/00 A3023 RMK A01 T02000002  RH  027%=      5-min Rain = 0
KCO2 211910Z 18004KT 20/00 A3023 RMK A01 T019900-0  RH  026%=      5-min Rain = 0
KCO2 211911Z 19005KT 20/M01 A3023 RMK A01 T01971006  RH  025%=      5-min Rain = 0
KCO2 211912Z 18004KT 20/M00 A3023 RMK A01 T01961003  RH  026%=      5-min Rain = 0
KCO2 211913Z 13004KT 20/00 A3023 RMK A01 T01960001  RH  027%=      5-min Rain = 0
KCO2 211914Z 12003KT 20/01 A3023 RMK A01 T01980007  RH  028%=      5-min Rain = 0
KCO2 211915Z 11005KT 20/01 A3022 RMK A01 T02000012  RH  029%=      5-min Rain = 0
KCO2 211916Z 14004KT 20/01 A3022 RMK A01 T02010011  RH  028%=      5-min Rain = 0
KCO2 211917Z 13004KT 20/01 A3022 RMK A01 T02010013  RH  029%=      5-min Rain = 0
KCO2 211918Z 15004KT 20/01 A3022 RMK A01 T02000011  RH  028%=      5-min Rain = 0
KCO2 211919Z 16007KT 20/01 A3022 RMK A01 T02000011  RH  028%=      5-min Rain = 0
KCO2 211920Z 14009KT 20/01 A3022 RMK A01 T02000013  RH  029%=      5-min Rain = 0
KCO2 211921Z 13008KT 20/02 A3022 RMK A01 T02010015  RH  029%=      5-min Rain = 0
KCO2 211922Z 14005KT 20/01 A3022 RMK A01 T02000012  RH  028%=      5-min Rain = 0
KCO2 211923Z 13005KT 20/01 A3022 RMK A01 T01980011  RH  029%=      5-min Rain = 0
KCO2 211924Z 15006KT 20/01 A3022 RMK A01 T01980008  RH  028%=      5-min Rain = 0
KCO2 211925Z 12008KT 20/01 A3022 RMK A01 T01980005  RH  027%=      5-min Rain = 0
KCO2 211926Z 12007KT 20/00 A3022 RMK A01 T02000002  RH  027%=      5-min Rain = 0
KCO2 211927Z 13008KT 20/00 A3022 RMK A01 T02010003  RH  027%=      5-min Rain = 0
KCO2 211928Z 12010KT 20/00 A3022 RMK A01 T02020003  RH  026%=      5-min Rain = 0
KCO2 211929Z 13008KT 20/M00 A3022 RMK A01 T02031001  RH  025%=      5-min Rain = 0
KCO2 211930Z 13007KT 20/M00 A3022 RMK A01 T02011003  RH  025%=      5-min Rain = 0
KCO2 211931Z 13008KT 20/M01 A3022 RMK A01 T02011006  RH  025%=      5-min Rain = 0
KCO2 211932Z 13007KT 20/M00 A3022 RMK A01 T02011001  RH  026%=      5-min Rain = 0
KCO2 211933Z 13007KT 20/00 A3022 RMK A01 T02010001  RH  026%=      5-min Rain = 0
KCO2 211934Z 15007KT 20/00 A3022 RMK A01 T02020001  RH  026%=      5-min Rain = 0
KCO2 211935Z 14007KT 20/00 A3022 RMK A01 T020200-0  RH  026%=      5-min Rain = 0
KCO2 211936Z 13008KT 20/M01 A3022 RMK A01 T02021005  RH  025%=      5-min Rain = 0
KCO2 211937Z 15009KT 20/M00 A3022 RMK A01 T02031002  RH  025%=      5-min Rain = 0
KCO2 211938Z 14006KT 20/M00 A3022 RMK A01 T02021002  RH  025%=      5-min Rain = 0
KCO2 211939Z 17006KT 20/00 A3022 RMK A01 T02000002  RH  026%=      5-min Rain = 0
KCO2 211940Z 18005KT 20/00 A3022 RMK A01 T02000002  RH  026%=      5-min Rain = 0
KCO2 211941Z 16003KT 20/01 A3022 RMK A01 T02000006  RH  027%=      5-min Rain = 0
KCO2 211942Z 12006KT 20/01 A3022 RMK A01 T02020005  RH  027%=      5-min Rain = 0
KCO2 211943Z 13008KT 20/00 A3021 RMK A01 T02030003  RH  026%=      5-min Rain = 0
KCO2 211944Z 14006KT 20/00 A3021 RMK A01 T020300-0  RH  026%=      5-min Rain = 0
KCO2 211945Z 14006KT 20/M00 A3021 RMK A01 T02011003  RH  025%=      5-min Rain = 0
KCO2 211946Z 14006KT 20/M00 A3021 RMK A01 T02001004  RH  025%=      5-min Rain = 0
KCO2 211947Z 14007KT 20/M01 A3021 RMK A01 T02011007  RH  025%=      5-min Rain = 0
KCO2 211948Z 16005KT 20/M00 A3021 RMK A01 T02011003  RH  025%=      5-min Rain = 0
KCO2 211949Z 16005KT 20/M00 A3021 RMK A01 T02001003  RH  026%=      5-min Rain = 0
KCO2 211950Z 15004KT 20/M00 A3021 RMK A01 T02011002  RH  026%=      5-min Rain = 0
KCO2 211951Z 13005KT 20/M00 A3021 RMK A01 T02021001  RH  026%=      5-min Rain = 0
KCO2 211952Z 15005KT 20/00 A3021 RMK A01 T02030002  RH  026%=      5-min Rain = 0
KCO2 211953Z 14007KT 20/00 A302 RMK A01 T02040000  RH  025%=      5-min Rain = 0
KCO2 211954Z 15007KT 21/00 A302 RMK A01 T02050001  RH  025%=      5-min Rain = 0
KCO2 211955Z 15005KT 21/M00 A302 RMK A01 T02051004  RH  025%=      5-min Rain = 0
KCO2 211956Z 14004KT 20/00 A302 RMK A01 T02040001  RH  026%=      5-min Rain = 0
KCO2 211957Z 13005KT 21/00 A302 RMK A01 T02050001  RH  026%=      5-min Rain = 0
KCO2 211958Z 09003KT 21/M00 A302 RMK A01 T02061002  RH  025%=      5-min Rain = 0
KCO2 211959Z 09005KT 21/00 A302 RMK A01 T02050000  RH  025%=      5-min Rain = 0
KCO2 212000Z 09004KT 21/00 A302 RMK A01 T02050004  RH  026%=      5-min Rain = 0
KCO2 212001Z 12003KT 21/01 A302 RMK A01 T02060006  RH  026%=      5-min Rain = 0
KCO2 212002Z 12004KT 21/01 A302 RMK A01 T02070009  RH  027%=      5-min Rain = 0
KCO2 212003Z 15007KT 21/01 A302 RMK A01 T02090009  RH  026%=      5-min Rain = 0
KCO2 212004Z 14005KT 21/01 A302 RMK A01 T02090007  RH  026%=      5-min Rain = 0
KCO2 212005Z 17005KT 21/01 A302 RMK A01 T02070007  RH  026%=      5-min Rain = 0
KCO2 212006Z 18005KT 21/01 A302 RMK A01 T02060007  RH  027%=      5-min Rain = 0
KCO2 212007Z 17005KT 21/01 A302 RMK A01 T02060007  RH  026%=      5-min Rain = 0
KCO2 212008Z 16007KT 21/01 A302 RMK A01 T02060009  RH  027%=      5-min Rain = 0
KCO2 212009Z 16007KT 21/01 A302 RMK A01 T02080008  RH  026%=      5-min Rain = 0
KCO2 212010Z 15005KT 21/01 A302 RMK A01 T02070008  RH  027%=      5-min Rain = 0
KCO2 212011Z 15004KT 21/01 A302 RMK A01 T02060007  RH  026%=      5-min Rain = 0
KCO2 212012Z 17005KT 21/01 A302 RMK A01 T02050007  RH  027%=      5-min Rain = 0
KCO2 212013Z 20004KT 20/01 A302 RMK A01 T02040008  RH  027%=      5-min Rain = 0
KCO2 212014Z 21003KT 20/01 A302 RMK A01 T02040007  RH  027%=      5-min Rain = 0
KCO2 212015Z 19002KT 20/01 A302 RMK A01 T02040009  RH  027%=      5-min Rain = 0
KCO2 212016Z 19003KT 21/01 A302 RMK A01 T02050009  RH  027%=      5-min Rain = 0
KCO2 212017Z 21004KT 21/01 A302 RMK A01 T02050011  RH  027%=      5-min Rain = 0
KCO2 212018Z 18004KT 21/01 A302 RMK A01 T02070012  RH  027%=      5-min Rain = 0
KCO2 212019Z 19005KT 21/01 A302 RMK A01 T02090009  RH  026%=      5-min Rain = 0
KCO2 212020Z 18003KT 21/00 A302 RMK A01 T02090004  RH  026%=      5-min Rain = 0
KCO2 212021Z 16005KT 21/01 A302 RMK A01 T02070006  RH  026%=      5-min Rain = 0
KCO2 212022Z 16004KT 21/01 A302 RMK A01 T02060006  RH  026%=      5-min Rain = 0
KCO2 212023Z 18005KT 21/01 A302 RMK A01 T02070006  RH  026%=      5-min Rain = 0
KCO2 212024Z 16005KT 21/01 A302 RMK A01 T02060007  RH  026%=      5-min Rain = 0
KCO2 212025Z 14004KT 21/01 A302 RMK A01 T02060007  RH  026%=      5-min Rain = 0
KCO2 212026Z 15003KT 21/01 A302 RMK A01 T02060006  RH  026%=      5-min Rain = 0
KCO2 212027Z 15005KT 21/01 A302 RMK A01 T02060008  RH  027%=      5-min Rain = 0
KCO2 212028Z 15007KT 21/01 A302 RMK A01 T02090010  RH  027%=      5-min Rain = 0
KCO2 212029Z 12003KT 21/01 A302 RMK A01 T02110005  RH  025%=      5-min Rain = 0
KCO2 212030Z 14002KT 21/00 A302 RMK A01 T02100004  RH  025%=      5-min Rain = 0
KCO2 212031Z 27000KT 21/00 A302 RMK A01 T02090003  RH  025%=      5-min Rain = 0
KCO2 212032Z 31001KT 21/00 A3019 RMK A01 T02080002  RH  025%=      5-min Rain = 0
KCO2 212033Z 29003KT 21/00 A3019 RMK A01 T02060002  RH  026%=      5-min Rain = 0
KCO2 212034Z 27002KT 21/00 A3019 RMK A01 T02050002  RH  026%=      5-min Rain = 0
KCO2 212035Z 22002KT 21/00 A3019 RMK A01 T02050003  RH  026%=      5-min Rain = 0
KCO2 212036Z 21001KT 21/00 A3019 RMK A01 T02050002  RH  026%=      5-min Rain = 0
KCO2 212037Z 19006KT 21/00 A3019 RMK A01 T02060004  RH  026%=      5-min Rain = 0
KCO2 212038Z 20005KT 21/00 A3019 RMK A01 T02070003  RH  026%=      5-min Rain = 0
KCO2 212039Z 20003KT 21/00 A3019 RMK A01 T02060003  RH  026%=      5-min Rain = 0
KCO2 212040Z 22006KT 21/00 A3019 RMK A01 T02070004  RH  026%=      5-min Rain = 0
KCO2 212041Z 22005KT 21/01 A3019 RMK A01 T02070006  RH  026%=      5-min Rain = 0
KCO2 212042Z 24006KT 21/01 A3019 RMK A01 T02080007  RH  026%=      5-min Rain = 0
KCO2 212043Z 24004KT 21/01 A3019 RMK A01 T02090006  RH  026%=      5-min Rain = 0
KCO2 212044Z 25004KT 21/01 A3019 RMK A01 T02100005  RH  026%=      5-min Rain = 0
KCO2 212045Z 25005KT 21/00 A3019 RMK A01 T02090004  RH  026%=      5-min Rain = 0
KCO2 212046Z 24003KT 21/00 A3019 RMK A01 T02070003  RH  025%=      5-min Rain = 0
KCO2 212047Z 28002KT 21/00 A3019 RMK A01 T02050002  RH  026%=      5-min Rain = 0
KCO2 212048Z 25002KT 20/01 A3019 RMK A01 T02040006  RH  026%=      5-min Rain = 0
KCO2 212049Z 21004KT 21/00 A3019 RMK A01 T02050004  RH  026%=      5-min Rain = 0
KCO2 212050Z 16005KT 21/00 A3019 RMK A01 T02050003  RH  026%=      5-min Rain = 0
KCO2 212051Z 15003KT 21/00 A3019 RMK A01 T02070003  RH  026%=      5-min Rain = 0
KCO2 212052Z 17004KT 21/00 A3019 RMK A01 T02090004  RH  025%=      5-min Rain = 0
KCO2 212053Z 19005KT 21/00 A3019 RMK A01 T02110004  RH  025%=      5-min Rain = 0
KCO2 212054Z 20005KT 21/01 A3019 RMK A01 T02110005  RH  025%=      5-min Rain = 0
KCO2 212055Z 23004KT 21/00 A3019 RMK A01 T02120004  RH  025%=      5-min Rain = 0
KCO2 212056Z 26003KT 21/01 A3019 RMK A01 T02120006  RH  025%=      5-min Rain = 0
KCO2 212057Z 30003KT 21/01 A3019 RMK A01 T02140008  RH  025%=      5-min Rain = 0
KCO2 212058Z 31005KT 22/01 A3019 RMK A01 T02150008  RH  025%=      5-min Rain = 0
KCO2 212059Z 33004KT 22/01 A3019 RMK A01 T02160005  RH  025%=      5-min Rain = 0
KCO2 212100Z 32003KT 22/01 A3019 RMK A01 T02150005  RH  025%=      5-min Rain = 0
KCO2 212101Z 24002KT 21/01 A3019 RMK A01 T02140006  RH  025%=      5-min Rain = 0
KCO2 212102Z 14007KT 22/01 A3019 RMK A01 T02150005  RH  025%=      5-min Rain = 0
KCO2 212103Z 14008KT 22/01 A3018 RMK A01 T02160007  RH  025%=      5-min Rain = 0
KCO2 212104Z 13004KT 22/00 A3018 RMK A01 T02170002  RH  024%=      5-min Rain = 0
KCO2 212105Z 10003KT 22/00 A3018 RMK A01 T02150003  RH  024%=      5-min Rain = 0
KCO2 212106Z 15004KT 22/01 A3018 RMK A01 T02150005  RH  025%=      5-min Rain = 0
KCO2 212107Z 16004KT 22/00 A3018 RMK A01 T021700-0  RH  024%=      5-min Rain = 0
KCO2 212108Z 24003KT 22/00 A3018 RMK A01 T02180003  RH  024%=      5-min Rain = 0
KCO2 212109Z 22002KT 22/00 A3018 RMK A01 T02170004  RH  024%=      5-min Rain = 0
KCO2 212110Z 19006KT 22/00 A3018 RMK A01 T02170003  RH  024%=      5-min Rain = 0
KCO2 212111Z 18002KT 22/M01 A3018 RMK A01 T02181006  RH  022%=      5-min Rain = 0
KCO2 212112Z 17005KT 22/M00 A3018 RMK A01 T02191004  RH  023%=      5-min Rain = 0
KCO2 212113Z 17002KT 22/M01 A3018 RMK A01 T02181006  RH  022%=      5-min Rain = 0
KCO2 212114Z 04002KT 22/M01 A3018 RMK A01 T02181009  RH  022%=      5-min Rain = 0
KCO2 212115Z 12001KT 22/M01 A3018 RMK A01 T02181006  RH  022%=      5-min Rain = 0
KCO2 212116Z 17003KT 22/M01 A3017 RMK A01 T02191006  RH  022%=      5-min Rain = 0
KCO2 212117Z 15002G7KT 22/M01 A3017 RMK A01 T02201007  RH  022%=      5-min Rain = 0
KCO2 212118Z 12004KT 22/M01 A3017 RMK A01 T02201008  RH  022%=      5-min Rain = 0
KCO2 212119Z 12004KT 22/M01 A3017 RMK A01 T02201011  RH  021%=      5-min Rain = 0
KCO2 212120Z 14003KT 22/M01 A3017 RMK A01 T02191007  RH  022%=      5-min Rain = 0
KCO2 212121Z 14003KT 22/M01 A3017 RMK A01 T02181007  RH  022%=      5-min Rain = 0
KCO2 212122Z 13007KT 22/M01 A3017 RMK A01 T02181007  RH  022%=      5-min Rain = 0
KCO2 212123Z 13005KT 22/M01 A3017 RMK A01 T02191010  RH  022%=      5-min Rain = 0
KCO2 212124Z 11005KT 22/M01 A3017 RMK A01 T02191010  RH  022%=      5-min Rain = 0
KCO2 212125Z 10006KT 22/M01 A3017 RMK A01 T02211007  RH  022%=      5-min Rain = 0
KCO2 212126Z 13007KT 22/M01 A3016 RMK A01 T02231008  RH  022%=      5-min Rain = 0
KCO2 212127Z 13005KT 22/M01 A3016 RMK A01 T02231009  RH  021%=      5-min Rain = 0
KCO2 212128Z 11003KT 22/M01 A3016 RMK A01 T02231010  RH  021%=      5-min Rain = 0
KCO2 212129Z 13005KT 22/M01 A3016 RMK A01 T02231009  RH  021%=      5-min Rain = 0
KCO2 212130Z 17009G15KT 22/M01 A3016 RMK A01 T02231011  RH  021%=      5-min Rain = 0
KCO2 212131Z 17010KT 22/M01 A3016 RMK A01 T02221010  RH  021%=      5-min Rain = 0
KCO2 212132Z 16010KT 22/M02 A3016 RMK A01 T02211015  RH  021%=      5-min Rain = 0
KCO2 212133Z 17009KT 22/M02 A3016 RMK A01 T02211018  RH  020%=      5-min Rain = 0
KCO2 212134Z 18006KT 22/M02 A3016 RMK A01 T02181022  RH  020%=      5-min Rain = 0
KCO2 212135Z 17004KT 22/M02 A3016 RMK A01 T02151022  RH  020%=      5-min Rain = 0
KCO2 212136Z 17005KT 22/M02 A3016 RMK A01 T02161016  RH  021%=      5-min Rain = 0
KCO2 212137Z 17007KT 22/M02 A3015 RMK A01 T02191016  RH  021%=      5-min Rain = 0
KCO2 212138Z 14003KT 22/M01 A3015 RMK A01 T02191014  RH  021%=      5-min Rain = 0
KCO2 212139Z 14004KT 22/M01 A3015 RMK A01 T02161014  RH  021%=      5-min Rain = 0
KCO2 212140Z 14004KT 22/M01 A3015 RMK A01 T02161010  RH  022%=      5-min Rain = 0
KCO2 212141Z 18005KT 22/M00 A3015 RMK A01 T02181004  RH  023%=      5-min Rain = 0
KCO2 212142Z 17005KT 22/M00 A3015 RMK A01 T02191001  RH  023%=      5-min Rain = 0
KCO2 212143Z 14006KT 22/00 A3015 RMK A01 T02190000  RH  023%=      5-min Rain = 0
KCO2 212144Z 15009KT 22/00 A3015 RMK A01 T02200001  RH  023%=      5-min Rain = 0
KCO2 212145Z 14009KT 22/00 A3015 RMK A01 T02180001  RH  024%=      5-min Rain = 0
KCO2 212146Z 14008KT 22/01 A3015 RMK A01 T02160005  RH  024%=      5-min Rain = 0
KCO2 212147Z 14007KT 22/01 A3015 RMK A01 T02170008  RH  025%=      5-min Rain = 0
KCO2 212148Z 13007KT 22/01 A3015 RMK A01 T02180009  RH  025%=      5-min Rain = 0
KCO2 212149Z 13007KT 22/01 A3015 RMK A01 T02190010  RH  025%=      5-min Rain = 0
KCO2 212150Z 12007KT 22/01 A3015 RMK A01 T02190009  RH  025%=      5-min Rain = 0
KCO2 212151Z 12009KT 22/01 A3015 RMK A01 T02180008  RH  025%=      5-min Rain = 0
KCO2 212152Z 13009KT 22/01 A3015 RMK A01 T02170010  RH  025%=      5-min Rain = 0
KCO2 212153Z 13006KT 22/01 A3015 RMK A01 T02170007  RH  025%=      5-min Rain = 0
KCO2 212154Z 11003KT 22/01 A3015 RMK A01 T02150007  RH  025%=      5-min Rain = 0
KCO2 212155Z 11003KT 21/01 A3014 RMK A01 T02140008  RH  025%=      5-min Rain = 0
KCO2 212156Z 13004KT 22/01 A3014 RMK A01 T02150006  RH  025%=      5-min Rain = 0
KCO2 212157Z 13005KT 22/M00 A3014 RMK A01 T02161002  RH  023%=      5-min Rain = 0
KCO2 212158Z 12005KT 22/M00 A3014 RMK A01 T02161003  RH  023%=      5-min Rain = 0
KCO2 212159Z 11004KT 22/M01 A3014 RMK A01 T02161005  RH  023%=      5-min Rain = 0
KCO2 212200Z 12004KT 21/M01 A3014 RMK A01 T02141006  RH  023%=      5-min Rain = 0
KCO2 212201Z 14003KT 21/M01 A3014 RMK A01 T02131007  RH  023%=      5-min Rain = 0
KCO2 212202Z 14002KT 21/M01 A3014 RMK A01 T02131005  RH  023%=      5-min Rain = 0
KCO2 212203Z 16007KT 21/M00 A3014 RMK A01 T02131002  RH  024%=      5-min Rain = 0
KCO2 212204Z 14006KT 22/M00 A3014 RMK A01 T02151004  RH  023%=      5-min Rain = 0
KCO2 212205Z 14007KT 22/M00 A3014 RMK A01 T02161002  RH  023%=      5-min Rain = 0
KCO2 212206Z 14006KT 22/00 A3014 RMK A01 T02160003  RH  024%=      5-min Rain = 0
KCO2 212207Z 15008KT 22/01 A3014 RMK A01 T02150007  RH  025%=      5-min Rain = 0
KCO2 212208Z 16009KT 22/01 A3014 RMK A01 T02160009  RH  025%=      5-min Rain = 0
KCO2 212209Z 15010KT 22/01 A3014 RMK A01 T02160013  RH  026%=      5-min Rain = 0
KCO2 212210Z 16009KT 22/02 A3014 RMK A01 T02160015  RH  026%=      5-min Rain = 0
KCO2 212211Z 15010KT 22/02 A3014 RMK A01 T02160015  RH  026%=      5-min Rain = 0
KCO2 212212Z 15007KT 22/01 A3014 RMK A01 T02150014  RH  026%=      5-min Rain = 0
KCO2 212213Z 15008KT 22/02 A3014 RMK A01 T02150015  RH  027%=      5-min Rain = 0
KCO2 212214Z 15010KT 22/02 A3014 RMK A01 T02150016  RH  027%=      5-min Rain = 0
KCO2 212215Z 14010KT 22/02 A3014 RMK A01 T02150017  RH  027%=      5-min Rain = 0
KCO2 212216Z 14008KT 22/02 A3014 RMK A01 T02150015  RH  027%=      5-min Rain = 0
KCO2 212217Z 14006KT 21/02 A3013 RMK A01 T02140018  RH  027%=      5-min Rain = 0
KCO2 212218Z 14006KT 21/02 A3013 RMK A01 T02130019  RH  028%=      5-min Rain = 0
KCO2 212219Z 14006KT 21/02 A3013 RMK A01 T02130018  RH  028%=      5-min Rain = 0
KCO2 212220Z 14005KT 21/02 A3013 RMK A01 T02130019  RH  028%=      5-min Rain = 0
KCO2 212221Z 16008KT 21/02 A3013 RMK A01 T02140017  RH  027%=      5-min Rain = 0
KCO2 212222Z 15007KT 21/02 A3013 RMK A01 T02140015  RH  027%=      5-min Rain = 0
KCO2 212223Z 15008KT 22/02 A3013 RMK A01 T02150015  RH  027%=      5-min Rain = 0
KCO2 212224Z 14008KT 22/02 A3013 RMK A01 T02150015  RH  027%=      5-min Rain = 0
KCO2 212225Z 13007KT 22/02 A3013 RMK A01 T02160016  RH  027%=      5-min Rain = 0
KCO2 212226Z 13008KT 22/02 A3013 RMK A01 T02160016  RH  027%=      5-min Rain = 0
KCO2 212227Z 13007KT 22/02 A3013 RMK A01 T02160018  RH  027%=      5-min Rain = 0
KCO2 212228Z 12008KT 22/02 A3013 RMK A01 T02170022  RH  028%=      5-min Rain = 0
KCO2 212229Z 12008KT 22/02 A3013 RMK A01 T02170024  RH  028%=      5-min Rain = 0
KCO2 212230Z 12011KT 22/02 A3013 RMK A01 T02160023  RH  028%=      5-min Rain = 0
KCO2 212231Z 13010KT 22/02 A3013 RMK A01 T02160022  RH  028%=      5-min Rain = 0
KCO2 212232Z 14008KT 22/02 A3013 RMK A01 T02150021  RH  028%=      5-min Rain = 0
KCO2 212233Z 15008KT 22/02 A3013 RMK A01 T02150021  RH  028%=      5-min Rain = 0
KCO2 212234Z 14005KT 22/02 A3013 RMK A01 T02150020  RH  028%=      5-min Rain = 0
KCO2 212235Z 13005KT 21/02 A3013 RMK A01 T02140021  RH  028%=      5-min Rain = 0
KCO2 212236Z 13006KT 22/02 A3013 RMK A01 T02150021  RH  028%=      5-min Rain = 0
KCO2 212237Z 14006KT 22/02 A3013 RMK A01 T02170019  RH  027%=      5-min Rain = 0
KCO2 212238Z 12007KT 22/02 A3013 RMK A01 T02180018  RH  027%=      5-min Rain = 0
KCO2 212239Z 12006KT 22/02 A3013 RMK A01 T02180016  RH  026%=      5-min Rain = 0
KCO2 212240Z 12007G12KT 22/02 A3013 RMK A01 T02180018  RH  027%=      5-min Rain = 0
KCO2 212241Z 13009KT 22/03 A3013 RMK A01 T02180026  RH  028%=      5-min Rain = 0
KCO2 212242Z 13009KT 22/03 A3013 RMK A01 T02190030  RH  029%=      5-min Rain = 0
KCO2 212243Z 13010KT 22/03 A3013 RMK A01 T02200029  RH  029%=      5-min Rain = 0
KCO2 212244Z 12007KT 22/03 A3013 RMK A01 T02200028  RH  028%=      5-min Rain = 0
KCO2 212245Z 13008KT 22/03 A3013 RMK A01 T02190030  RH  029%=      5-min Rain = 0
KCO2 212246Z 13008KT 22/03 A3013 RMK A01 T02190029  RH  029%=      5-min Rain = 0
KCO2 212247Z 12008KT 22/03 A3013 RMK A01 T02180027  RH  028%=      5-min Rain = 0
KCO2 212248Z 12008KT 22/03 A3013 RMK A01 T02170027  RH  028%=      5-min Rain = 0
KCO2 212249Z 14008KT 22/03 A3013 RMK A01 T02170027  RH  029%=      5-min Rain = 0
KCO2 212250Z 12006KT 22/03 A3013 RMK A01 T02170026  RH  029%=      5-min Rain = 0
KCO2 212251Z 13006KT 22/03 A3013 RMK A01 T02160027  RH  029%=      5-min Rain = 0
KCO2 212252Z 12007KT 22/03 A3013 RMK A01 T02170028  RH  029%=      5-min Rain = 0
KCO2 212253Z 13007KT 22/03 A3013 RMK A01 T02180029  RH  029%=      5-min Rain = 0
KCO2 212254Z 13007KT 22/03 A3014 RMK A01 T02190028  RH  029%=      5-min Rain = 0
KCO2 212255Z 14006KT 22/03 A3013 RMK A01 T02180027  RH  028%=      5-min Rain = 0
KCO2 212256Z 13007KT 22/03 A3014 RMK A01 T02180027  RH  028%=      5-min Rain = 0
KCO2 212257Z 13006KT 22/03 A3014 RMK A01 T02180027  RH  028%=      5-min Rain = 0
KCO2 212258Z 12006KT 22/03 A3014 RMK A01 T02180025  RH  028%=      5-min Rain = 0
KCO2 212259Z 15006KT 22/03 A3014 RMK A01 T02170027  RH  028%=      5-min Rain = 0
KCO2 212300Z 16005KT 22/03 A3014 RMK A01 T02170032  RH  030%=      5-min Rain = 0
KCO2 212301Z 17004KT 22/03 A3014 RMK A01 T02170032  RH  030%=      5-min Rain = 0
KCO2 212302Z 15006KT 22/03 A3014 RMK A01 T02170033  RH  030%=      5-min Rain = 0
KCO2 212303Z 14006KT 22/03 A3014 RMK A01 T02170034  RH  030%=      5-min Rain = 0
KCO2 212304Z 13004KT 22/03 A3014 RMK A01 T02170033  RH  030%=      5-min Rain = 0
KCO2 212305Z 13004KT 22/04 A3014 RMK A01 T02170036  RH  030%=      5-min Rain = 0
KCO2 212306Z 12004KT 22/04 A3014 RMK A01 T02170036  RH  031%=      5-min Rain = 0
KCO2 212307Z 12006KT 22/04 A3013 RMK A01 T02160037  RH  031%=      5-min Rain = 0
KCO2 212308Z 12005KT 22/04 A3014 RMK A01 T02170039  RH  031%=      5-min Rain = 0
KCO2 212309Z 13006KT 22/04 A3013 RMK A01 T02170040  RH  031%=      5-min Rain = 0
KCO2 212310Z 13007KT 22/04 A3013 RMK A01 T02180038  RH  031%=      5-min Rain = 0
KCO2 212311Z 14006KT 22/04 A3014 RMK A01 T02170039  RH  031%=      5-min Rain = 0
KCO2 212312Z 13003KT 22/04 A3013 RMK A01 T02160039  RH  031%=      5-min Rain = 0
KCO2 212313Z 14003KT 22/04 A3013 RMK A01 T02150040  RH  032%=      5-min Rain = 0
KCO2 212314Z 13005KT 22/04 A3013 RMK A01 T02150041  RH  032%=      5-min Rain = 0
KCO2 212315Z 14009KT 22/04 A3013 RMK A01 T02150043  RH  032%=      5-min Rain = 0
KCO2 212316Z 15008KT 22/05 A3013 RMK A01 T02150045  RH  033%=      5-min Rain = 0
KCO2 212317Z 14006KT 22/05 A3013 RMK A01 T02150046  RH  033%=      5-min Rain = 0
KCO2 212318Z 14006KT 22/05 A3013 RMK A01 T02150045  RH  033%=      5-min Rain = 0
KCO2 212319Z 15007KT 22/04 A3013 RMK A01 T02150044  RH  033%=      5-min Rain = 0
KCO2 212320Z 14007KT 21/04 A3013 RMK A01 T02140043  RH  033%=      5-min Rain = 0
KCO2 212321Z 14005KT 21/04 A3013 RMK A01 T02140043  RH  032%=      5-min Rain = 0
KCO2 212322Z 13007KT 21/04 A3013 RMK A01 T02140044  RH  033%=      5-min Rain = 0
KCO2 212323Z 14006KT 21/04 A3013 RMK A01 T02140044  RH  033%=      5-min Rain = 0
KCO2 212324Z 15004KT 21/04 A3013 RMK A01 T02140044  RH  033%=      5-min Rain = 0
KCO2 212325Z 14004KT 21/04 A3013 RMK A01 T02140044  RH  033%=      5-min Rain = 0
KCO2 212326Z 15004KT 21/04 A3013 RMK A01 T02130044  RH  033%=      5-min Rain = 0
KCO2 212327Z 15003KT 21/04 A3013 RMK A01 T02130043  RH  033%=      5-min Rain = 0
KCO2 212328Z 17005KT 21/05 A3013 RMK A01 T02130045  RH  033%=      5-min Rain = 0
KCO2 212329Z 16005KT 21/05 A3013 RMK A01 T02130048  RH  034%=      5-min Rain = 0
KCO2 212330Z 14006KT 21/05 A3013 RMK A01 T02130050  RH  035%=      5-min Rain = 0
KCO2 212331Z 15006KT 21/05 A3013 RMK A01 T02130051  RH  035%=      5-min Rain = 0
KCO2 212332Z 15006KT 21/05 A3013 RMK A01 T02130051  RH  035%=      5-min Rain = 0
KCO2 212333Z 15006KT 21/05 A3013 RMK A01 T02120051  RH  035%=      5-min Rain = 0
KCO2 212334Z 16006KT 21/05 A3013 RMK A01 T02120052  RH  035%=      5-min Rain = 0
KCO2 212335Z 17006KT 21/05 A3013 RMK A01 T02120050  RH  035%=      5-min Rain = 0
KCO2 212336Z 16006KT 21/05 A3013 RMK A01 T02120050  RH  035%=      5-min Rain = 0
KCO2 212337Z 16006KT 21/05 A3013 RMK A01 T02120050  RH  035%=      5-min Rain = 0
KCO2 212338Z 15006KT 21/05 A3013 RMK A01 T02120050  RH  035%=      5-min Rain = 0
KCO2 212339Z 15006KT 21/05 A3013 RMK A01 T02110049  RH  034%=      5-min Rain = 0
KCO2 212340Z 15006KT 21/05 A3013 RMK A01 T02120050  RH  035%=      5-min Rain = 0
KCO2 212341Z 15005KT 21/05 A3013 RMK A01 T02130051  RH  035%=      5-min Rain = 0
KCO2 212342Z 15006KT 21/05 A3013 RMK A01 T02140051  RH  034%=      5-min Rain = 0
KCO2 212343Z 15006KT 22/05 A3013 RMK A01 T02150049  RH  034%=      5-min Rain = 0
KCO2 212344Z 15007KT 21/05 A3013 RMK A01 T02140048  RH  034%=      5-min Rain = 0
KCO2 212345Z 15006KT 21/05 A3013 RMK A01 T02130048  RH  034%=      5-min Rain = 0
KCO2 212346Z 16006KT 21/05 A3013 RMK A01 T02130049  RH  034%=      5-min Rain = 0
KCO2 212347Z 16006KT 21/05 A3013 RMK A01 T02130048  RH  034%=      5-min Rain = 0
KCO2 212348Z 14005KT 21/05 A3013 RMK A01 T02140049  RH  034%=      5-min Rain = 0
KCO2 212349Z 13005KT 22/05 A3013 RMK A01 T02150049  RH  034%=      5-min Rain = 0
KCO2 212350Z 13005KT 22/05 A3013 RMK A01 T02160048  RH  033%=      5-min Rain = 0
KCO2 212351Z 15007KT 22/05 A3012 RMK A01 T02160048  RH  033%=      5-min Rain = 0
KCO2 212352Z 16007KT 22/05 A3012 RMK A01 T02160046  RH  033%=      5-min Rain = 0
KCO2 212353Z 16006KT 22/05 A3012 RMK A01 T02160047  RH  033%=      5-min Rain = 0
KCO2 212354Z 14005KT 22/05 A3012 RMK A01 T02160047  RH  033%=      5-min Rain = 0
KCO2 212355Z 14007KT 22/05 A3012 RMK A01 T02170048  RH  033%=      5-min Rain = 0
KCO2 212356Z 15007KT 22/05 A3012 RMK A01 T02170049  RH  033%=      5-min Rain = 0
KCO2 212357Z 14008KT 22/05 A3012 RMK A01 T02170050  RH  034%=      5-min Rain = 0
KCO2 212358Z 15008KT 22/05 A3012 RMK A01 T02170049  RH  033%=      5-min Rain = 0
KCO2 212359Z 16008KT 22/05 A3012 RMK A01 T02160049  RH  033%=      5-min Rain = 0
KCO2 220000Z 15008KT 22/05 A3012 RMK A01 T02160048  RH  033%=      5-min Rain = 0
KCO2 220001Z 15008KT 22/05 A3012 RMK A01 T02150048  RH  034%=      5-min Rain = 0
KCO2 220002Z 15008KT 21/05 A3012 RMK A01 T02140048  RH  034%=      5-min Rain = 0
KCO2 220003Z 16008KT 21/05 A3012 RMK A01 T02140050  RH  034%=      5-min Rain = 0
KCO2 220004Z 15009KT 21/05 A3012 RMK A01 T02140052  RH  035%=      5-min Rain = 0
KCO2 220005Z 15008KT 21/05 A3013 RMK A01 T02140053  RH  035%=      5-min Rain = 0
KCO2 220006Z 16007KT 21/05 A3013 RMK A01 T02130053  RH  035%=      5-min Rain = 0
KCO2 220007Z 15007KT 21/05 A3013 RMK A01 T02120053  RH  035%=      5-min Rain = 0
KCO2 220008Z 15007KT 21/05 A3013 RMK A01 T02120054  RH  036%=      5-min Rain = 0
KCO2 220009Z 15007KT 21/05 A3012 RMK A01 T02120054  RH  036%=      5-min Rain = 0
KCO2 220010Z 15008KT 21/05 A3012 RMK A01 T02120054  RH  036%=      5-min Rain = 0
KCO2 220011Z 15008KT 21/05 A3012 RMK A01 T02110053  RH  036%=      5-min Rain = 0
KCO2 220012Z 15006KT 21/05 A3012 RMK A01 T02110054  RH  036%=      5-min Rain = 0
KCO2 220013Z 14006KT 21/05 A3013 RMK A01 T02100054  RH  036%=      5-min Rain = 0
KCO2 220014Z 15006KT 21/06 A3013 RMK A01 T02100055  RH  036%=      5-min Rain = 0
KCO2 220015Z 16006KT 21/06 A3013 RMK A01 T02100055  RH  036%=      5-min Rain = 0
KCO2 220016Z 16006KT 21/06 A3013 RMK A01 T02100057  RH  037%=      5-min Rain = 0
KCO2 220017Z 15007KT 21/06 A3013 RMK A01 T02100058  RH  037%=      5-min Rain = 0
KCO2 220018Z 16008KT 21/06 A3013 RMK A01 T02090059  RH  037%=      5-min Rain = 0
KCO2 220019Z 18008KT 21/06 A3013 RMK A01 T02090058  RH  037%=      5-min Rain = 0
KCO2 220020Z 18007KT 21/06 A3013 RMK A01 T02090058  RH  037%=      5-min Rain = 0
KCO2 220021Z 17008KT 21/06 A3013 RMK A01 T02080058  RH  038%=      5-min Rain = 0
KCO2 220022Z 16006KT 21/06 A3013 RMK A01 T02070058  RH  038%=      5-min Rain = 0
KCO2 220023Z 15006KT 21/06 A3013 RMK A01 T02070058  RH  038%=      5-min Rain = 0
KCO2 220024Z 15005KT 21/06 A3013 RMK A01 T02070059  RH  038%=      5-min Rain = 0
KCO2 220025Z 15005KT 21/06 A3013 RMK A01 T02060059  RH  038%=      5-min Rain = 0
KCO2 220026Z 16006KT 21/06 A3013 RMK A01 T02060061  RH  039%=      5-min Rain = 0
KCO2 220027Z 17006KT 21/06 A3013 RMK A01 T02060061  RH  039%=      5-min Rain = 0
KCO2 220028Z 17008KT 21/06 A3013 RMK A01 T02050060  RH  039%=      5-min Rain = 0
KCO2 220029Z 16007KT 20/06 A3013 RMK A01 T02040060  RH  039%=      5-min Rain = 0
KCO2 220030Z 16006KT 20/06 A3013 RMK A01 T02030060  RH  039%=      5-min Rain = 0
KCO2 220031Z 16006KT 20/06 A3013 RMK A01 T02020060  RH  040%=      5-min Rain = 0
KCO2 220032Z 16005KT 20/06 A3013 RMK A01 T02020060  RH  040%=      5-min Rain = 0
KCO2 220033Z 16005KT 20/06 A3013 RMK A01 T02010061  RH  040%=      5-min Rain = 0
KCO2 220034Z 15005KT 20/06 A3013 RMK A01 T02010061  RH  040%=      5-min Rain = 0
KCO2 220035Z 16005KT 20/06 A3013 RMK A01 T02000061  RH  040%=      5-min Rain = 0
KCO2 220036Z 16005KT 20/06 A3013 RMK A01 T01990061  RH  041%=      5-min Rain = 0
KCO2 220037Z 15005KT 20/06 A3013 RMK A01 T01980061  RH  041%=      5-min Rain = 0
KCO2 220038Z 15006KT 20/06 A3013 RMK A01 T01970062  RH  041%=      5-min Rain = 0
KCO2 220039Z 15006KT 20/06 A3013 RMK A01 T01960061  RH  041%=      5-min Rain = 0
KCO2 220040Z 16006KT 20/06 A3013 RMK A01 T01960061  RH  041%=      5-min Rain = 0
KCO2 220041Z 15005KT 20/06 A3013 RMK A01 T01950061  RH  042%=      5-min Rain = 0
KCO2 220042Z 15006KT 19/06 A3013 RMK A01 T01940062  RH  042%=      5-min Rain = 0
KCO2 220043Z 15005KT 19/06 A3013 RMK A01 T01920061  RH  042%=      5-min Rain = 0
KCO2 220044Z 16006KT 19/06 A3013 RMK A01 T01920061  RH  042%=      5-min Rain = 0
KCO2 220045Z 15006KT 19/06 A3013 RMK A01 T01910061  RH  043%=      5-min Rain = 0
KCO2 220046Z 16006KT 19/06 A3013 RMK A01 T01900062  RH  043%=      5-min Rain = 0
KCO2 220047Z 15007KT 19/06 A3013 RMK A01 T01890062  RH  043%=      5-min Rain = 0
KCO2 220048Z 16006KT 19/06 A3013 RMK A01 T01880062  RH  044%=      5-min Rain = 0
KCO2 220049Z 16006KT 19/06 A3013 RMK A01 T01880063  RH  044%=      5-min Rain = 0
KCO2 220050Z 16005KT 19/06 A3013 RMK A01 T01880063  RH  044%=      5-min Rain = 0
KCO2 220051Z 16006KT 19/06 A3013 RMK A01 T01870063  RH  044%=      5-min Rain = 0
KCO2 220052Z 16005KT 19/06 A3013 RMK A01 T01860063  RH  044%=      5-min Rain = 0
KCO2 220053Z 16005KT 19/06 A3013 RMK A01 T01850063  RH  045%=      5-min Rain = 0
KCO2 220054Z 16005KT 18/06 A3013 RMK A01 T01840062  RH  045%=      5-min Rain = 0
KCO2 220055Z 15005KT 18/06 A3014 RMK A01 T01840063  RH  045%=      5-min Rain = 0
KCO2 220056Z 15005KT 18/06 A3014 RMK A01 T01830062  RH  045%=      5-min Rain = 0
KCO2 220057Z 15004KT 18/06 A3014 RMK A01 T01820063  RH  046%=      5-min Rain = 0
KCO2 220058Z 15004KT 18/06 A3014 RMK A01 T01810063  RH  046%=      5-min Rain = 0
KCO2 220059Z 15004KT 18/06 A3014 RMK A01 T01790063  RH  046%=      5-min Rain = 0
KCO2 220100Z 15005KT 18/06 A3014 RMK A01 T01790063  RH  047%=      5-min Rain = 0
KCO2 220101Z 15005KT 18/06 A3014 RMK A01 T01780063  RH  047%=      5-min Rain = 0
KCO2 220102Z 15005KT 18/06 A3014 RMK A01 T01770063  RH  047%=      5-min Rain = 0
KCO2 220103Z 15005KT 18/06 A3014 RMK A01 T01760062  RH  047%=      5-min Rain = 0
KCO2 220104Z 15006KT 18/06 A3014 RMK A01 T01760063  RH  047%=      5-min Rain = 0
KCO2 220105Z 15005KT 18/06 A3014 RMK A01 T01750063  RH  048%=      5-min Rain = 0
KCO2 220106Z 15005KT 17/06 A3014 RMK A01 T01740062  RH  048%=      5-min Rain = 0
KCO2 220107Z 15005KT 17/06 A3014 RMK A01 T01740063  RH  048%=      5-min Rain = 0
KCO2 220108Z 15005KT 17/06 A3014 RMK A01 T01730062  RH  048%=      5-min Rain = 0
KCO2 220109Z 15005KT 17/06 A3014 RMK A01 T01720063  RH  048%=      5-min Rain = 0
KCO2 220110Z 14005KT 17/06 A3014 RMK A01 T01720063  RH  049%=      5-min Rain = 0
KCO2 220111Z 14005KT 17/06 A3014 RMK A01 T01710063  RH  049%=      5-min Rain = 0
KCO2 220112Z 14005KT 17/06 A3014 RMK A01 T01710063  RH  049%=      5-min Rain = 0
KCO2 220113Z 14005KT 17/06 A3014 RMK A01 T01700062  RH  049%=      5-min Rain = 0
KCO2 220114Z 14005KT 17/06 A3014 RMK A01 T01690062  RH  049%=      5-min Rain = 0
KCO2 220115Z 14005KT 17/06 A3014 RMK A01 T01690062  RH  049%=      5-min Rain = 0
KCO2 220116Z 14005KT 17/06 A3014 RMK A01 T01680062  RH  050%=      5-min Rain = 0
KCO2 220117Z 14005KT 17/06 A3014 RMK A01 T01680062  RH  050%=      5-min Rain = 0
KCO2 220118Z 14005KT 17/06 A3014 RMK A01 T01670062  RH  050%=      5-min Rain = 0
KCO2 220119Z 15005KT 17/06 A3014 RMK A01 T01670062  RH  050%=      5-min Rain = 0
KCO2 220120Z 15005KT 17/06 A3014 RMK A01 T01660062  RH  050%=      5-min Rain = 0
KCO2 220121Z 15005KT 17/06 A3014 RMK A01 T01660063  RH  051%=      5-min Rain = 0
KCO2 220122Z 15005KT 17/06 A3014 RMK A01 T01660063  RH  051%=      5-min Rain = 0
KCO2 220123Z 15005KT 17/06 A3014 RMK A01 T01650063  RH  051%=      5-min Rain = 0
KCO2 220124Z 15004KT 17/06 A3014 RMK A01 T01660063  RH  051%=      5-min Rain = 0
KCO2 220125Z 15004KT 17/06 A3014 RMK A01 T01660063  RH  051%=      5-min Rain = 0
KCO2 220126Z 15004KT 17/06 A3014 RMK A01 T01660064  RH  051%=      5-min Rain = 0
KCO2 220127Z 15004KT 17/06 A3014 RMK A01 T01670064  RH  051%=      5-min Rain = 0
KCO2 220128Z 15005KT 17/06 A3014 RMK A01 T01680064  RH  050%=      5-min Rain = 0
KCO2 220129Z 15005KT 17/06 A3014 RMK A01 T01680064  RH  050%=      5-min Rain = 0
KCO2 220130Z 15005KT 17/06 A3014 RMK A01 T01680064  RH  050%=      5-min Rain = 0
KCO2 220131Z 15005KT 17/06 A3014 RMK A01 T01680064  RH  050%=      5-min Rain = 0
KCO2 220132Z 15005KT 17/06 A3014 RMK A01 T01670063  RH  050%=      5-min Rain = 0
KCO2 220133Z 15006KT 17/06 A3014 RMK A01 T01660063  RH  051%=      5-min Rain = 0
KCO2 220134Z 15006KT 16/06 A3014 RMK A01 T01640062  RH  051%=      5-min Rain = 0
KCO2 220135Z 15006KT 16/06 A3014 RMK A01 T01630062  RH  051%=      5-min Rain = 0
KCO2 220136Z 14006KT 16/06 A3014 RMK A01 T01610062  RH  052%=      5-min Rain = 0
KCO2 220137Z 13007KT 16/06 A3014 RMK A01 T01600063  RH  053%=      5-min Rain = 0
KCO2 220138Z 13007KT 16/06 A3014 RMK A01 T01590063  RH  053%=      5-min Rain = 0
KCO2 220139Z 14007KT 16/06 A3014 RMK A01 T01580063  RH  053%=      5-min Rain = 0
KCO2 220140Z 14007KT 16/06 A3014 RMK A01 T01580064  RH  053%=      5-min Rain = 0
KCO2 220141Z 14007KT 16/06 A3014 RMK A01 T01580064  RH  054%=      5-min Rain = 0
KCO2 220142Z 14007KT 16/06 A3014 RMK A01 T01570064  RH  054%=      5-min Rain = 0
KCO2 220143Z 14007KT 16/06 A3015 RMK A01 T01580064  RH  054%=      5-min Rain = 0
KCO2 220144Z 13006KT 16/06 A3015 RMK A01 T01580064  RH  054%=      5-min Rain = 0
KCO2 220145Z 13006KT 16/06 A3015 RMK A01 T01570064  RH  054%=      5-min Rain = 0
KCO2 220146Z 13006KT 16/06 A3015 RMK A01 T01580064  RH  054%=      5-min Rain = 0
KCO2 220147Z 13005KT 16/06 A3015 RMK A01 T01570064  RH  054%=      5-min Rain = 0
KCO2 220148Z 13005KT 16/06 A3015 RMK A01 T01570064  RH  054%=      5-min Rain = 0
KCO2 220149Z 13004KT 16/06 A3015 RMK A01 T01570064  RH  054%=      5-min Rain = 0
KCO2 220150Z 13005KT 16/06 A3015 RMK A01 T01560064  RH  054%=      5-min Rain = 0
KCO2 220151Z 12005KT 16/06 A3015 RMK A01 T01560064  RH  054%=      5-min Rain = 0
KCO2 220152Z 12004KT 16/06 A3015 RMK A01 T01560064  RH  054%=      5-min Rain = 0
KCO2 220153Z 13005KT 16/06 A3015 RMK A01 T01560063  RH  054%=      5-min Rain = 0
KCO2 220154Z 13005KT 16/06 A3015 RMK A01 T01560062  RH  053%=      5-min Rain = 0
KCO2 220155Z 13005KT 16/06 A3015 RMK A01 T01560061  RH  053%=      5-min Rain = 0
KCO2 220156Z 13006KT 16/06 A3015 RMK A01 T01550060  RH  053%=      5-min Rain = 0
KCO2 220157Z 13006KT 15/06 A3015 RMK A01 T01540059  RH  053%=      5-min Rain = 0
KCO2 220158Z 13006KT 15/06 A3015 RMK A01 T01530058  RH  053%=      5-min Rain = 0
KCO2 220159Z 13006KT 15/06 A3015 RMK A01 T01520056  RH  053%=      5-min Rain = 0
KCO2 220200Z 13007KT 15/06 A3015 RMK A01 T01510055  RH  053%=      5-min Rain = 0
KCO2 220201Z 13007KT 15/05 A3015 RMK A01 T01500053  RH  052%=      5-min Rain = 0
KCO2 220202Z 13007KT 15/05 A3015 RMK A01 T01500052  RH  052%=      5-min Rain = 0
KCO2 220203Z 13006KT 15/05 A3015 RMK A01 T01500051  RH  052%=      5-min Rain = 0
KCO2 220204Z 13006KT 15/05 A3015 RMK A01 T01500049  RH  051%=      5-min Rain = 0
KCO2 220205Z 13006KT 15/05 A3015 RMK A01 T01500048  RH  050%=      5-min Rain = 0
KCO2 220206Z 13006KT 15/05 A3015 RMK A01 T01510047  RH  050%=      5-min Rain = 0
KCO2 220207Z 13006KT 15/05 A3015 RMK A01 T01520047  RH  049%=      5-min Rain = 0
KCO2 220208Z 14006KT 15/05 A3015 RMK A01 T01520047  RH  049%=      5-min Rain = 0
KCO2 220209Z 14006KT 15/05 A3015 RMK A01 T01520046  RH  049%=      5-min Rain = 0
KCO2 220210Z 14006KT 15/05 A3015 RMK A01 T01520046  RH  049%=      5-min Rain = 0
KCO2 220211Z 14006KT 15/05 A3015 RMK A01 T01520047  RH  049%=      5-min Rain = 0
KCO2 220212Z 14006KT 15/05 A3015 RMK A01 T01520046  RH  049%=      5-min Rain = 0
KCO2 220213Z 14006KT 15/05 A3015 RMK A01 T01520046  RH  049%=      5-min Rain = 0
KCO2 220214Z 13006KT 15/05 A3015 RMK A01 T01510046  RH  049%=      5-min Rain = 0
KCO2 220215Z 13006KT 15/05 A3015 RMK A01 T01510046  RH  049%=      5-min Rain = 0
KCO2 220216Z 13007KT 15/05 A3015 RMK A01 T01510045  RH  049%=      5-min Rain = 0
KCO2 220217Z 13007KT 15/05 A3014 RMK A01 T01510045  RH  049%=      5-min Rain = 0
KCO2 220218Z 13008KT 15/04 A3014 RMK A01 T01510044  RH  049%=      5-min Rain = 0
KCO2 220219Z 13008KT 15/04 A3014 RMK A01 T01510044  RH  049%=      5-min Rain = 0
KCO2 220220Z 14008KT 15/04 A3014 RMK A01 T01520044  RH  048%=      5-min Rain = 0
KCO2 220221Z 14008KT 15/04 A3014 RMK A01 T01520043  RH  048%=      5-min Rain = 0
KCO2 220222Z 14008KT 15/04 A3014 RMK A01 T01540043  RH  048%=      5-min Rain = 0
KCO2 220223Z 14008KT 15/04 A3014 RMK A01 T01540043  RH  047%=      5-min Rain = 0
KCO2 220224Z 14008KT 15/04 A3014 RMK A01 T01540043  RH  047%=      5-min Rain = 0
KCO2 220225Z 14009KT 15/04 A3014 RMK A01 T01540043  RH  047%=      5-min Rain = 0
KCO2 220226Z 14009KT 15/04 A3014 RMK A01 T01540043  RH  047%=      5-min Rain = 0
KCO2 220227Z 14008KT 15/04 A3014 RMK A01 T01540042  RH  047%=      5-min Rain = 0
KCO2 220228Z 14008KT 15/04 A3014 RMK A01 T01540043  RH  047%=      5-min Rain = 0
KCO2 220229Z 13008KT 15/04 A3014 RMK A01 T01530042  RH  047%=      5-min Rain = 0
KCO2 220230Z 13008KT 15/04 A3014 RMK A01 T01530042  RH  047%=      5-min Rain = 0
KCO2 220231Z 14008KT 15/04 A3014 RMK A01 T01530042  RH  047%=      5-min Rain = 0
KCO2 220232Z 13008KT 15/04 A3014 RMK A01 T01530042  RH  047%=      5-min Rain = 0
KCO2 220233Z 13007KT 15/04 A3014 RMK A01 T01530041  RH  047%=      5-min Rain = 0
KCO2 220234Z 14008KT 15/04 A3014 RMK A01 T01530041  RH  047%=      5-min Rain = 0
KCO2 220235Z 14007KT 15/04 A3014 RMK A01 T01530041  RH  047%=      5-min Rain = 0
KCO2 220236Z 14007KT 15/04 A3014 RMK A01 T01530040  RH  047%=      5-min Rain = 0
KCO2 220237Z 14007KT 15/04 A3014 RMK A01 T01520040  RH  047%=      5-min Rain = 0
KCO2 220238Z 14006KT 15/04 A3014 RMK A01 T01530039  RH  047%=      5-min Rain = 0
KCO2 220239Z 13006KT 15/04 A3014 RMK A01 T01530040  RH  047%=      5-min Rain = 0
KCO2 220240Z 13005KT 15/04 A3014 RMK A01 T01530039  RH  047%=      5-min Rain = 0
KCO2 220241Z 13005KT 15/04 A3014 RMK A01 T01530039  RH  047%=      5-min Rain = 0
KCO2 220242Z 13005KT 15/04 A3014 RMK A01 T01520039  RH  047%=      5-min Rain = 0
KCO2 220243Z 13005KT 15/04 A3015 RMK A01 T01520038  RH  046%=      5-min Rain = 0
KCO2 220244Z 13006KT 15/04 A3015 RMK A01 T01520038  RH  046%=      5-min Rain = 0
KCO2 220245Z 13005KT 15/04 A3015 RMK A01 T01520037  RH  046%=      5-min Rain = 0
KCO2 220246Z 13005KT 15/04 A3015 RMK A01 T01510037  RH  046%=      5-min Rain = 0
KCO2 220247Z 13005KT 15/04 A3015 RMK A01 T01510037  RH  046%=      5-min Rain = 0
KCO2 220248Z 12004KT 15/04 A3015 RMK A01 T01500036  RH  046%=      5-min Rain = 0
KCO2 220249Z 11005KT 15/04 A3015 RMK A01 T01490036  RH  047%=      5-min Rain = 0
KCO2 220250Z 12006KT 15/04 A3015 RMK A01 T01480036  RH  047%=      5-min Rain = 0
KCO2 220251Z 12007KT 15/04 A3015 RMK A01 T01480036  RH  047%=      5-min Rain = 0
KCO2 220252Z 12006KT 15/04 A3015 RMK A01 T01480036  RH  047%=      5-min Rain = 0
KCO2 220253Z 12005KT 15/04 A3015 RMK A01 T01470037  RH  047%=      5-min Rain = 0
KCO2 220254Z 12005KT 15/04 A3015 RMK A01 T01470037  RH  048%=      5-min Rain = 0
KCO2 220255Z 12005KT 15/04 A3015 RMK A01 T01460037  RH  048%=      5-min Rain = 0
KCO2 220256Z 12005KT 15/04 A3015 RMK A01 T01450037  RH  048%=      5-min Rain = 0
KCO2 220257Z 12005KT 15/04 A3015 RMK A01 T01450037  RH  048%=      5-min Rain = 0
KCO2 220258Z 12005KT 14/04 A3015 RMK A01 T01440037  RH  049%=      5-min Rain = 0
KCO2 220259Z 12005KT 14/04 A3015 RMK A01 T01430037  RH  049%=      5-min Rain = 0
KCO2 220300Z 12004KT 14/04 A3015 RMK A01 T01430037  RH  049%=      5-min Rain = 0
KCO2 220301Z 11004KT 14/04 A3015 RMK A01 T01430037  RH  049%=      5-min Rain = 0
KCO2 220302Z 11004KT 14/04 A3015 RMK A01 T01420037  RH  049%=      5-min Rain = 0
KCO2 220303Z 11005KT 14/04 A3015 RMK A01 T01420036  RH  049%=      5-min Rain = 0
KCO2 220304Z 11005KT 14/04 A3015 RMK A01 T01420036  RH  049%=      5-min Rain = 0
KCO2 220305Z 11005KT 14/04 A3015 RMK A01 T01420036  RH  049%=      5-min Rain = 0
KCO2 220306Z 11005KT 14/04 A3015 RMK A01 T01410036  RH  049%=      5-min Rain = 0
KCO2 220307Z 11005KT 14/04 A3015 RMK A01 T01410036  RH  049%=      5-min Rain = 0
KCO2 220308Z 11005KT 14/04 A3015 RMK A01 T01400035  RH  049%=      5-min Rain = 0
KCO2 220309Z 11006KT 14/04 A3015 RMK A01 T01410035  RH  049%=      5-min Rain = 0
KCO2 220310Z 11006KT 14/03 A3015 RMK A01 T01410034  RH  049%=      5-min Rain = 0
KCO2 220311Z 10006KT 14/03 A3015 RMK A01 T01410034  RH  048%=      5-min Rain = 0
KCO2 220312Z 10006KT 14/03 A3015 RMK A01 T01410033  RH  048%=      5-min Rain = 0
KCO2 220313Z 11006KT 14/03 A3015 RMK A01 T01410033  RH  048%=      5-min Rain = 0
KCO2 220314Z 11005KT 14/03 A3015 RMK A01 T01420032  RH  048%=      5-min Rain = 0
KCO2 220315Z 11005KT 14/03 A3015 RMK A01 T01420032  RH  048%=      5-min Rain = 0
KCO2 220316Z 11005KT 14/03 A3015 RMK A01 T01420032  RH  048%=      5-min Rain = 0
KCO2 220317Z 11005KT 14/03 A3015 RMK A01 T01410032  RH  048%=      5-min Rain = 0
KCO2 220318Z 11005KT 14/03 A3015 RMK A01 T01410033  RH  048%=      5-min Rain = 0
KCO2 220319Z 11006KT 14/03 A3015 RMK A01 T01400032  RH  048%=      5-min Rain = 0
KCO2 220320Z 12006KT 14/03 A3015 RMK A01 T01390031  RH  048%=      5-min Rain = 0
KCO2 220321Z 11007KT 14/03 A3015 RMK A01 T01390030  RH  048%=      5-min Rain = 0
KCO2 220322Z 11007KT 14/03 A3015 RMK A01 T01380028  RH  047%=      5-min Rain = 0
KCO2 220323Z 11007KT 14/03 A3015 RMK A01 T01390027  RH  047%=      5-min Rain = 0
KCO2 220324Z 11007KT 14/03 A3015 RMK A01 T01400027  RH  047%=      5-min Rain = 0
KCO2 220325Z 11007KT 14/03 A3015 RMK A01 T01400026  RH  046%=      5-min Rain = 0
KCO2 220326Z 11007KT 14/03 A3015 RMK A01 T01410025  RH  045%=      5-min Rain = 0
KCO2 220327Z 11007KT 14/02 A3015 RMK A01 T01420024  RH  045%=      5-min Rain = 0
KCO2 220328Z 11006KT 14/02 A3015 RMK A01 T01440024  RH  044%=      5-min Rain = 0
KCO2 220329Z 11007KT 14/02 A3015 RMK A01 T01440024  RH  044%=      5-min Rain = 0
KCO2 220330Z 11006KT 15/02 A3015 RMK A01 T01450024  RH  044%=      5-min Rain = 0
KCO2 220331Z 11007KT 15/02 A3015 RMK A01 T01450023  RH  044%=      5-min Rain = 0
KCO2 220332Z 11006KT 15/02 A3015 RMK A01 T01450023  RH  044%=      5-min Rain = 0
KCO2 220333Z 10005KT 15/03 A3015 RMK A01 T01450025  RH  044%=      5-min Rain = 0
KCO2 220334Z 10005KT 14/03 A3015 RMK A01 T01440026  RH  045%=      5-min Rain = 0
KCO2 220335Z 10006KT 14/03 A3015 RMK A01 T01420027  RH  046%=      5-min Rain = 0
KCO2 220336Z 10006KT 14/03 A3015 RMK A01 T01410027  RH  046%=      5-min Rain = 0
KCO2 220337Z 09005KT 14/03 A3015 RMK A01 T01390028  RH  047%=      5-min Rain = 0
KCO2 220338Z 09005KT 14/03 A3016 RMK A01 T01370028  RH  048%=      5-min Rain = 0
KCO2 220339Z 09005KT 13/03 A3016 RMK A01 T01340028  RH  049%=      5-min Rain = 0
KCO2 220340Z 09005KT 13/03 A3016 RMK A01 T01320028  RH  049%=      5-min Rain = 0
KCO2 220341Z 09005KT 13/03 A3016 RMK A01 T01300028  RH  050%=      5-min Rain = 0
KCO2 220342Z 09005KT 13/03 A3016 RMK A01 T01290027  RH  050%=      5-min Rain = 0
KCO2 220343Z 09005KT 13/03 A3016 RMK A01 T01280027  RH  050%=      5-min Rain = 0
KCO2 220344Z 08005KT 13/03 A3016 RMK A01 T01270027  RH  050%=      5-min Rain = 0
KCO2 220345Z 08005KT 13/03 A3016 RMK A01 T01270027  RH  051%=      5-min Rain = 0
KCO2 220346Z 08005KT 13/03 A3016 RMK A01 T01260027  RH  051%=      5-min Rain = 0
KCO2 220347Z 08005KT 13/03 A3016 RMK A01 T01250026  RH  051%=      5-min Rain = 0
KCO2 220348Z 08005KT 12/03 A3016 RMK A01 T01240026  RH  051%=      5-min Rain = 0
KCO2 220349Z 08005KT 12/03 A3016 RMK A01 T01240026  RH  051%=      5-min Rain = 0
KCO2 220350Z 08005KT 12/03 A3016 RMK A01 T01230025  RH  051%=      5-min Rain = 0
KCO2 220351Z 08005KT 12/03 A3016 RMK A01 T01230025  RH  051%=      5-min Rain = 0
KCO2 220352Z 08005KT 12/02 A3016 RMK A01 T01230024  RH  051%=      5-min Rain = 0
KCO2 220353Z 08005KT 12/02 A3016 RMK A01 T01220024  RH  051%=      5-min Rain = 0
KCO2 220354Z 08005KT 12/02 A3016 RMK A01 T01230024  RH  051%=      5-min Rain = 0
KCO2 220355Z 08005KT 12/02 A3016 RMK A01 T01220024  RH  051%=      5-min Rain = 0
KCO2 220356Z 07005KT 12/02 A3016 RMK A01 T01220024  RH  051%=      5-min Rain = 0
KCO2 220357Z 07004KT 12/02 A3016 RMK A01 T01210024  RH  051%=      5-min Rain = 0
KCO2 220358Z 07005KT 12/02 A3016 RMK A01 T01210023  RH  051%=      5-min Rain = 0
KCO2 220359Z 08005KT 12/02 A3016 RMK A01 T01200023  RH  051%=      5-min Rain = 0
KCO2 220400Z 08005KT 12/02 A3016 RMK A01 T01200023  RH  051%=      5-min Rain = 0
KCO2 220401Z 08005KT 12/02 A3016 RMK A01 T01190023  RH  052%=      5-min Rain = 0
KCO2 220402Z 08005KT 12/02 A3016 RMK A01 T01180022  RH  052%=      5-min Rain = 0
KCO2 220403Z 08005KT 12/02 A3016 RMK A01 T01180022  RH  052%=      5-min Rain = 0
KCO2 220404Z 08005KT 12/02 A3016 RMK A01 T01180022  RH  052%=      5-min Rain = 0
KCO2 220405Z 09005KT 12/02 A3016 RMK A01 T01180022  RH  052%=      5-min Rain = 0
KCO2 220406Z 09005KT 12/02 A3016 RMK A01 T01180022  RH  052%=      5-min Rain = 0
KCO2 220407Z 09005KT 12/02 A3016 RMK A01 T01170021  RH  052%=      5-min Rain = 0
KCO2 220408Z 09005KT 12/02 A3016 RMK A01 T01170021  RH  051%=      5-min Rain = 0
KCO2 220409Z 09005KT 12/02 A3016 RMK A01 T01180020  RH  051%=      5-min Rain = 0
KCO2 220410Z 09006KT 12/02 A3016 RMK A01 T01190020  RH  051%=      5-min Rain = 0
KCO2 220411Z 09006KT 12/02 A3016 RMK A01 T01190020  RH  051%=      5-min Rain = 0
KCO2 220412Z 09006KT 12/02 A3016 RMK A01 T01200020  RH  050%=      5-min Rain = 0
KCO2 220413Z 09006KT 12/02 A3016 RMK A01 T01200019  RH  050%=      5-min Rain = 0
KCO2 220414Z 09006KT 12/02 A3016 RMK A01 T01210019  RH  050%=      5-min Rain = 0
KCO2 220415Z 09006KT 12/02 A3016 RMK A01 T01220019  RH  049%=      5-min Rain = 0
KCO2 220416Z 09006KT 12/02 A3016 RMK A01 T01220019  RH  049%=      5-min Rain = 0
KCO2 220417Z 10006KT 12/02 A3016 RMK A01 T01230019  RH  049%=      5-min Rain = 0
KCO2 220418Z 10006KT 12/02 A3016 RMK A01 T01240019  RH  049%=      5-min Rain = 0
KCO2 220419Z 10006KT 12/02 A3016 RMK A01 T01240019  RH  049%=      5-min Rain = 0
KCO2 220420Z 10006KT 12/02 A3016 RMK A01 T01230019  RH  049%=      5-min Rain = 0
KCO2 220421Z 10006KT 12/02 A3016 RMK A01 T01210019  RH  050%=      5-min Rain = 0
KCO2 220422Z 10006KT 12/02 A3016 RMK A01 T01200020  RH  050%=      5-min Rain = 0
KCO2 220423Z 10006KT 12/02 A3016 RMK A01 T01180020  RH  051%=      5-min Rain = 0
KCO2 220424Z 10006KT 12/02 A3016 RMK A01 T01170020  RH  051%=      5-min Rain = 0
KCO2 220425Z 10005KT 12/02 A3016 RMK A01 T01160020  RH  051%=      5-min Rain = 0
KCO2 220426Z 10005KT 12/02 A3016 RMK A01 T01160020  RH  052%=      5-min Rain = 0
KCO2 220427Z 10005KT 12/02 A3016 RMK A01 T01150019  RH  052%=      5-min Rain = 0
KCO2 220428Z 10005KT 12/02 A3016 RMK A01 T01150019  RH  052%=      5-min Rain = 0
KCO2 220429Z 10005KT 11/02 A3016 RMK A01 T01140019  RH  052%=      5-min Rain = 0
KCO2 220430Z 11005KT 11/02 A3016 RMK A01 T01140018  RH  052%=      5-min Rain = 0
KCO2 220431Z 11005KT 11/02 A3016 RMK A01 T01140018  RH  052%=      5-min Rain = 0
KCO2 220432Z 11005KT 11/02 A3016 RMK A01 T01140018  RH  052%=      5-min Rain = 0
KCO2 220433Z 11005KT 11/02 A3016 RMK A01 T01140018  RH  052%=      5-min Rain = 0
KCO2 220434Z 12005KT 11/02 A3016 RMK A01 T01140018  RH  051%=      5-min Rain = 0
KCO2 220435Z 12005KT 11/02 A3016 RMK A01 T01140017  RH  051%=      5-min Rain = 0
KCO2 220436Z 12005KT 12/02 A3017 RMK A01 T01150017  RH  051%=      5-min Rain = 0
KCO2 220437Z 12005KT 12/02 A3017 RMK A01 T01160017  RH  051%=      5-min Rain = 0
KCO2 220438Z 12006KT 12/02 A3016 RMK A01 T01170017  RH  051%=      5-min Rain = 0
KCO2 220439Z 12005KT 12/02 A3016 RMK A01 T01170018  RH  050%=      5-min Rain = 0
KCO2 220440Z 12006KT 12/02 A3016 RMK A01 T01170017  RH  050%=      5-min Rain = 0
KCO2 220441Z 12006KT 12/02 A3016 RMK A01 T01170017  RH  050%=      5-min Rain = 0
KCO2 220442Z 12006KT 12/02 A3016 RMK A01 T01170017  RH  050%=      5-min Rain = 0
KCO2 220443Z 12006KT 12/02 A3016 RMK A01 T01180017  RH  050%=      5-min Rain = 0
KCO2 220444Z 12006KT 12/02 A3016 RMK A01 T01180018  RH  050%=      5-min Rain = 0
KCO2 220445Z 12006KT 12/02 A3016 RMK A01 T01190018  RH  050%=      5-min Rain = 0
KCO2 220446Z 12006KT 12/02 A3016 RMK A01 T01200018  RH  050%=      5-min Rain = 0
KCO2 220447Z 12006KT 12/02 A3016 RMK A01 T01200018  RH  049%=      5-min Rain = 0
KCO2 220448Z 12006KT 12/02 A3016 RMK A01 T01210018  RH  049%=      5-min Rain = 0
KCO2 220449Z 12006KT 12/02 A3016 RMK A01 T01220018  RH  049%=      5-min Rain = 0
KCO2 220450Z 12006KT 12/02 A3016 RMK A01 T01220018  RH  049%=      5-min Rain = 0
KCO2 220451Z 12006KT 12/02 A3016 RMK A01 T01220018  RH  049%=      5-min Rain = 0
KCO2 220452Z 11006KT 12/02 A3016 RMK A01 T01220018  RH  049%=      5-min Rain = 0
KCO2 220453Z 11006KT 12/02 A3016 RMK A01 T01230018  RH  049%=      5-min Rain = 0
KCO2 220454Z 11006KT 12/02 A3016 RMK A01 T01220019  RH  049%=      5-min Rain = 0
KCO2 220455Z 11006KT 12/02 A3016 RMK A01 T01220019  RH  049%=      5-min Rain = 0
KCO2 220456Z 11005KT 12/02 A3016 RMK A01 T01220019  RH  049%=      5-min Rain = 0
KCO2 220457Z 11005KT 12/02 A3016 RMK A01 T01220019  RH  049%=      5-min Rain = 0
KCO2 220458Z 11005KT 12/02 A3016 RMK A01 T01220019  RH  049%=      5-min Rain = 0
KCO2 220459Z 11005KT 12/02 A3016 RMK A01 T01220019  RH  049%=      5-min Rain = 0

Page generated in 0.0712 seconds.